

[2026-01-24_14:40:10:541]AT+NRF91GPIO=1,1

[2026-01-24_14:40:10:541]0

[2026-01-24_14:40:10:541]OK

[2026-01-24_14:40:11:506]AT+NRF91GPIO=2,1

[2026-01-24_14:40:11:506]0

[2026-01-24_14:40:11:506]OK

[2026-01-24_14:40:13:878]AT+ATNRF91="AT%XCOEX0=1,1,1560,1610",3000

[2026-01-24_14:40:13:878]OK

[2026-01-24_14:40:14:990]AT+ATNRF91="AT%XANTCFG=1",3000

[2026-01-24_14:40:14:990]OK

[2026-01-24_14:40:16:501]AT+ATNRF91="AT+CFUN=31",3000

[2026-01-24_14:40:16:501]OK

[2026-01-24_14:40:18:424]AT+GPS=1

[2026-01-24_14:40:18:424]$GPGGA,000049.97,,,,,0,,99.99,,M,,M,,*65

[2026-01-24_14:40:18:424]$GPGLL,,,,,000049.97,V,N*49

[2026-01-24_14:40:18:424]OK

[2026-01-24_14:40:18:424]$GPGSA,A,1,,,,,,,,,,,,,99.99,99.99,99.99,1*2D

[2026-01-24_14:40:18:424]$GPGSV,1,1,0,,,,,,,,,,,,,,,,,1*54

[2026-01-24_14:40:18:424]$GPRMC,000049.97,V,,,,,,,060180,,,N,V*0B

[2026-01-24_14:40:19:424]$GPGGA,000050.97,,,,,0,,99.99,,M,,M,,*6D

[2026-01-24_14:40:19:424]$GPGLL,,,,,000050.97,V,N*41

[2026-01-24_14:40:19:424]$GPGSA,A,1,,,,,,,,,,,,,99.99,99.99,99.99,1*2D

[2026-01-24_14:40:19:424]$GPGSV,1,1,0,,,,,,,,,,,,,,,,,1*54

[2026-01-24_14:40:19:424]$GPRMC,000050.97,V,,,,,,,060180,,,N,V*03

[2026-01-24_14:40:20:423]$GPGGA,000051.97,,,,,0,,99.99,,M,,M,,*6C

[2026-01-24_14:40:20:423]$GPGLL,,,,,000051.97,V,N*40

[2026-01-24_14:40:20:423]$GPGSA,A,1,,,,,,,,,,,,,99.99,99.99,99.99,1*2D

[2026-01-24_14:40:20:423]$GPGSV,1,1,1,1,,,40,1*60

[2026-01-24_14:40:20:423]$GPRMC,000051.97,V,,,,,,,060180,,,N,V*02

[2026-01-24_14:40:21:426]$GPGGA,000052.97,,,,,0,,99.99,,M,,M,,*6F

[2026-01-24_14:40:21:426]$GPGLL,,,,,000052.97,V,N*43

[2026-01-24_14:40:21:426]$GPGSA,A,1,,,,,,,,,,,,,99.99,99.99,99.99,1*2D

[2026-01-24_14:40:21:426]$GPGSV,1,1,1,1,,,40,1*60

[2026-01-24_14:40:21:426]$GPRMC,000052.97,V,,,,,,,060180,,,N,V*01

[2026-01-24_14:40:22:421]$GPGGA,000053.97,,,,,0,,99.99,,M,,M,,*6E

[2026-01-24_14:40:22:421]$GPGLL,,,,,000053.97,V,N*42

[2026-01-24_14:40:22:421]$GPGSA,A,1,,,,,,,,,,,,,99.99,99.99,99.99,1*2D

[2026-01-24_14:40:22:421]$GPGSV,1,1,1,1,,,40,1*60

[2026-01-24_14:40:22:421]$GPRMC,000053.97,V,,,,,,,060180,,,N,V*00

[2026-01-24_14:40:23:425]$GPGGA,000054.97,,,,,0,,99.99,,M,,M,,*69

[2026-01-24_14:40:23:425]$GPGLL,,,,,000054.97,V,N*45

[2026-01-24_14:40:23:425]$GPGSA,A,1,,,,,,,,,,,,,99.99,99.99,99.99,1*2D

[2026-01-24_14:40:23:425]$GPGSV,1,1,1,1,,,40,1*60

[2026-01-24_14:40:23:425]$GPRMC,000054.97,V,,,,,,,060180,,,N,V*07

[2026-01-24_14:40:24:426]$GPGGA,000055.97,,,,,0,,99.99,,M,,M,,*68

[2026-01-24_14:40:24:426]$GPGLL,,,,,000055.97,V,N*44

[2026-01-24_14:40:24:426]$GPGSA,A,1,,,,,,,,,,,,,99.99,99.99,99.99,1*2D

[2026-01-24_14:40:24:426]$GPGSV,1,1,1,1,,,41,1*61

[2026-01-24_14:40:24:426]$GPRMC,000055.97,V,,,,,,,060180,,,N,V*06

[2026-01-24_14:40:25:424]$GPGGA,000056.97,,,,,0,,99.99,,M,,M,,*6B

[2026-01-24_14:40:25:424]$GPGLL,,,,,000056.97,V,N*47

[2026-01-24_14:40:25:424]$GPGSA,A,1,,,,,,,,,,,,,99.99,99.99,99.99,1*2D

[2026-01-24_14:40:25:424]$GPGSV,1,1,1,1,,,41,1*61

[2026-01-24_14:40:25:424]$GPRMC,000056.97,V,,,,,,,060180,,,N,V*05

[2026-01-24_14:40:26:427]$GPGGA,000057.97,,,,,0,,99.99,,M,,M,,*6A

[2026-01-24_14:40:26:427]$GPGLL,,,,,000057.97,V,N*46

[2026-01-24_14:40:26:427]$GPGSA,A,1,,,,,,,,,,,,,99.99,99.99,99.99,1*2D

[2026-01-24_14:40:26:427]$GPGSV,1,1,1,1,,,41,1*61

[2026-01-24_14:40:26:427]$GPRMC,000057.97,V,,,,,,,060180,,,N,V*04

[2026-01-24_14:40:27:424]$GPGGA,000058.97,,,,,0,,99.99,,M,,M,,*65

[2026-01-24_14:40:27:424]$GPGLL,,,,,000058.97,V,N*49

[2026-01-24_14:40:27:424]$GPGSA,A,1,,,,,,,,,,,,,99.99,99.99,99.99,1*2D

[2026-01-24_14:40:27:424]$GPGSV,1,1,1,1,,,41,1*61

[2026-01-24_14:40:27:424]$GPRMC,000058.97,V,,,,,,,060180,,,N,V*0B

[2026-01-24_14:40:28:430]$GPGGA,000059.97,,,,,0,,99.99,,M,,M,,*64

[2026-01-24_14:40:28:430]$GPGLL,,,,,000059.97,V,N*48

[2026-01-24_14:40:28:430]$GPGSA,A,1,,,,,,,,,,,,,99.99,99.99,99.99,1*2D

[2026-01-24_14:40:28:430]$GPGSV,1,1,1,1,,,41,1*61

[2026-01-24_14:40:28:430]$GPRMC,000059.97,V,,,,,,,060180,,,N,V*0A

[2026-01-24_14:40:29:423]$GPGGA,000100.97,,,,,0,,99.99,,M,,M,,*69

[2026-01-24_14:40:29:423]$GPGLL,,,,,000100.97,V,N*45

[2026-01-24_14:40:29:423]$GPGSA,A,1,,,,,,,,,,,,,99.99,99.99,99.99,1*2D

[2026-01-24_14:40:29:423]$GPGSV,1,1,1,1,,,41,1*61

[2026-01-24_14:40:29:423]$GPRMC,000100.97,V,,,,,,,060180,,,N,V*07

[2026-01-24_14:40:30:429]$GPGGA,000101.97,,,,,0,,99.99,,M,,M,,*68

[2026-01-24_14:40:30:429]$GPGLL,,,,,000101.97,V,N*44

[2026-01-24_14:40:30:429]$GPGSA,A,1,,,,,,,,,,,,,99.99,99.99,99.99,1*2D

[2026-01-24_14:40:30:429]$GPGSV,1,1,1,1,,,41,1*61

[2026-01-24_14:40:30:429]$GPRMC,000101.97,V,,,,,,,060180,,,N,V*06

[2026-01-24_14:40:31:423]$GPGGA,000102.97,,,,,0,,99.99,,M,,M,,*6B

[2026-01-24_14:40:31:423]$GPGLL,,,,,000102.97,V,N*47

[2026-01-24_14:40:31:423]$GPGSA,A,1,,,,,,,,,,,,,99.99,99.99,99.99,1*2D

[2026-01-24_14:40:31:423]$GPGSV,1,1,1,1,,,41,1*61

[2026-01-24_14:40:31:423]$GPRMC,000102.97,V,,,,,,,060180,,,N,V*05

[2026-01-24_14:40:32:428]$GPGGA,000103.97,,,,,0,,99.99,,M,,M,,*6A

[2026-01-24_14:40:32:428]$GPGLL,,,,,000103.97,V,N*46

[2026-01-24_14:40:32:428]$GPGSA,A,1,,,,,,,,,,,,,99.99,99.99,99.99,1*2D

[2026-01-24_14:40:32:428]$GPGSV,1,1,1,1,,,40,1*60

[2026-01-24_14:40:32:428]$GPRMC,000103.97,V,,,,,,,060180,,,N,V*04

[2026-01-24_14:40:33:429]$GPGGA,000104.97,,,,,0,,99.99,,M,,M,,*6D

[2026-01-24_14:40:33:429]$GPGLL,,,,,000104.97,V,N*41

[2026-01-24_14:40:33:429]$GPGSA,A,1,,,,,,,,,,,,,99.99,99.99,99.99,1*2D

[2026-01-24_14:40:33:429]$GPGSV,1,1,1,1,,,40,1*60

[2026-01-24_14:40:33:429]$GPRMC,000104.97,V,,,,,,,060180,,,N,V*03

[2026-01-24_14:40:34:431]$GPGGA,000105.97,,,,,0,,99.99,,M,,M,,*6C

[2026-01-24_14:40:34:431]$GPGLL,,,,,000105.97,V,N*40

[2026-01-24_14:40:34:431]$GPGSA,A,1,,,,,,,,,,,,,99.99,99.99,99.99,1*2D

[2026-01-24_14:40:34:431]$GPGSV,1,1,1,1,,,40,1*60

[2026-01-24_14:40:34:431]$GPRMC,000105.97,V,,,,,,,060180,,,N,V*02

[2026-01-24_14:40:35:430]$GPGGA,000106.97,,,,,0,,99.99,,M,,M,,*6F

[2026-01-24_14:40:35:430]$GPGLL,,,,,000106.97,V,N*43

[2026-01-24_14:40:35:430]$GPGSA,A,1,,,,,,,,,,,,,99.99,99.99,99.99,1*2D

[2026-01-24_14:40:35:430]$GPGSV,1,1,1,1,,,40,1*60

[2026-01-24_14:40:35:430]$GPRMC,000106.97,V,,,,,,,060180,,,N,V*01

[2026-01-24_14:40:36:432]$GPGGA,000107.97,,,,,0,,99.99,,M,,M,,*6E

[2026-01-24_14:40:36:432]$GPGLL,,,,,000107.97,V,N*42

[2026-01-24_14:40:36:432]$GPGSA,A,1,,,,,,,,,,,,,99.99,99.99,99.99,1*2D

[2026-01-24_14:40:36:432]$GPGSV,1,1,1,1,,,40,1*60

[2026-01-24_14:40:36:432]$GPRMC,000107.97,V,,,,,,,060180,,,N,V*00

[2026-01-24_14:40:37:435]$GPGGA,000108.97,,,,,0,,99.99,,M,,M,,*61

[2026-01-24_14:40:37:435]$GPGLL,,,,,000108.97,V,N*4D

[2026-01-24_14:40:37:435]$GPGSA,A,1,,,,,,,,,,,,,99.99,99.99,99.99,1*2D

[2026-01-24_14:40:37:435]$GPGSV,1,1,1,1,,,40,1*60

[2026-01-24_14:40:37:435]$GPRMC,000108.97,V,,,,,,,060180,,,N,V*0F

[2026-01-24_14:40:38:427]$GPGGA,000109.97,,,,,0,,99.99,,M,,M,,*60

[2026-01-24_14:40:38:427]$GPGLL,,,,,000109.97,V,N*4C

[2026-01-24_14:40:38:427]$GPGSA,A,1,,,,,,,,,,,,,99.99,99.99,99.99,1*2D

[2026-01-24_14:40:38:427]$GPGSV,1,1,1,1,,,40,1*60

[2026-01-24_14:40:38:427]$GPRMC,000109.97,V,,,,,,,060180,,,N,V*0E

[2026-01-24_14:40:39:430]$GPGGA,000110.97,,,,,0,,99.99,,M,,M,,*68

[2026-01-24_14:40:39:430]$GPGLL,,,,,000110.97,V,N*44

[2026-01-24_14:40:39:430]$GPGSA,A,1,,,,,,,,,,,,,99.99,99.99,99.99,1*2D

[2026-01-24_14:40:39:430]$GPGSV,1,1,1,1,,,40,1*60

[2026-01-24_14:40:39:430]$GPRMC,000110.97,V,,,,,,,060180,,,N,V*06

[2026-01-24_14:40:40:431]$GPGGA,000111.97,,,,,0,,99.99,,M,,M,,*69

[2026-01-24_14:40:40:431]$GPGLL,,,,,000111.97,V,N*45

[2026-01-24_14:40:40:431]$GPGSA,A,1,,,,,,,,,,,,,99.99,99.99,99.99,1*2D

[2026-01-24_14:40:40:431]$GPGSV,1,1,1,1,,,39,1*6E

[2026-01-24_14:40:40:431]$GPRMC,000111.97,V,,,,,,,060180,,,N,V*07

[2026-01-24_14:40:41:426]$GPGGA,000112.97,,,,,0,,99.99,,M,,M,,*6A

[2026-01-24_14:40:41:426]$GPGLL,,,,,000112.97,V,N*46

[2026-01-24_14:40:41:426]$GPGSA,A,1,,,,,,,,,,,,,99.99,99.99,99.99,1*2D

[2026-01-24_14:40:41:426]$GPGSV,1,1,1,1,,,39,1*6E

[2026-01-24_14:40:41:426]$GPRMC,000112.97,V,,,,,,,060180,,,N,V*04

[2026-01-24_14:40:42:433]$GPGGA,000113.97,,,,,0,,99.99,,M,,M,,*6B

[2026-01-24_14:40:42:433]$GPGLL,,,,,000113.97,V,N*47

[2026-01-24_14:40:42:433]$GPGSA,A,1,,,,,,,,,,,,,99.99,99.99,99.99,1*2D

[2026-01-24_14:40:42:433]$GPGSV,1,1,1,1,,,39,1*6E

[2026-01-24_14:40:42:433]$GPRMC,000113.97,V,,,,,,,060180,,,N,V*05

[2026-01-24_14:40:43:436]$GPGGA,000114.98,,,,,0,,99.99,,M,,M,,*63

[2026-01-24_14:40:43:436]$GPGLL,,,,,000114.98,V,N*4F

[2026-01-24_14:40:43:436]$GPGSA,A,1,,,,,,,,,,,,,99.99,99.99,99.99,1*2D

[2026-01-24_14:40:43:436]$GPGSV,1,1,1,1,,,39,1*6E

[2026-01-24_14:40:43:436]$GPRMC,000114.98,V,,,,,,,060180,,,N,V*0D

[2026-01-24_14:40:44:433]$GPGGA,000115.98,,,,,0,,99.99,,M,,M,,*62

[2026-01-24_14:40:44:433]$GPGLL,,,,,000115.98,V,N*4E

[2026-01-24_14:40:44:433]$GPGSA,A,1,,,,,,,,,,,,,99.99,99.99,99.99,1*2D

[2026-01-24_14:40:44:433]$GPGSV,1,1,1,1,,,39,1*6E

[2026-01-24_14:40:44:433]$GPRMC,000115.98,V,,,,,,,060180,,,N,V*0C

[2026-01-24_14:40:45:428]$GPGGA,000116.98,,,,,0,,99.99,,M,,M,,*61

[2026-01-24_14:40:45:428]$GPGLL,,,,,000116.98,V,N*4D

[2026-01-24_14:40:45:428]$GPGSA,A,1,,,,,,,,,,,,,99.99,99.99,99.99,1*2D

[2026-01-24_14:40:45:428]$GPGSV,1,1,1,1,,,39,1*6E

[2026-01-24_14:40:45:428]$GPRMC,000116.98,V,,,,,,,060180,,,N,V*0F

[2026-01-24_14:40:46:430]$GPGGA,000117.98,,,,,0,,99.99,,M,,M,,*60

[2026-01-24_14:40:46:430]$GPGLL,,,,,000117.98,V,N*4C

[2026-01-24_14:40:46:430]$GPGSA,A,1,,,,,,,,,,,,,99.99,99.99,99.99,1*2D

[2026-01-24_14:40:46:430]$GPGSV,1,1,1,1,,,40,1*60

[2026-01-24_14:40:46:430]$GPRMC,000117.98,V,,,,,,,060180,,,N,V*0E

[2026-01-24_14:40:47:437]$GPGGA,000118.98,,,,,0,,99.99,,M,,M,,*6F

[2026-01-24_14:40:47:437]$GPGLL,,,,,000118.98,V,N*43

[2026-01-24_14:40:47:437]$GPGSA,A,1,,,,,,,,,,,,,99.99,99.99,99.99,1*2D

[2026-01-24_14:40:47:437]$GPGSV,1,1,1,1,,,40,1*60

[2026-01-24_14:40:47:437]$GPRMC,000118.98,V,,,,,,,060180,,,N,V*01

[2026-01-24_14:40:48:430]$GPGGA,000119.98,,,,,0,,99.99,,M,,M,,*6E

[2026-01-24_14:40:48:430]$GPGLL,,,,,000119.98,V,N*42

[2026-01-24_14:40:48:430]$GPGSA,A,1,,,,,,,,,,,,,99.99,99.99,99.99,1*2D

[2026-01-24_14:40:48:430]$GPGSV,1,1,1,1,,,40,1*60

[2026-01-24_14:40:48:430]$GPRMC,000119.98,V,,,,,,,060180,,,N,V*00

[2026-01-24_14:40:49:436]$GPGGA,000120.98,,,,,0,,99.99,,M,,M,,*64

[2026-01-24_14:40:49:436]$GPGLL,,,,,000120.98,V,N*48

[2026-01-24_14:40:49:436]$GPGSA,A,1,,,,,,,,,,,,,99.99,99.99,99.99,1*2D

[2026-01-24_14:40:49:436]$GPGSV,1,1,1,1,,,40,1*60

[2026-01-24_14:40:49:436]$GPRMC,000120.98,V,,,,,,,060180,,,N,V*0A

[2026-01-24_14:40:50:438]$GPGGA,000121.98,,,,,0,,99.99,,M,,M,,*65

[2026-01-24_14:40:50:438]$GPGLL,,,,,000121.98,V,N*49

[2026-01-24_14:40:50:438]$GPGSA,A,1,,,,,,,,,,,,,99.99,99.99,99.99,1*2D

[2026-01-24_14:40:50:438]$GPGSV,1,1,1,1,,,41,1*61

[2026-01-24_14:40:50:438]$GPRMC,000121.98,V,,,,,,,060180,,,N,V*0B

[2026-01-24_14:40:51:431]$GPGGA,000122.98,,,,,0,,99.99,,M,,M,,*66

[2026-01-24_14:40:51:431]$GPGLL,,,,,000122.98,V,N*4A

[2026-01-24_14:40:51:431]$GPGSA,A,1,,,,,,,,,,,,,99.99,99.99,99.99,1*2D

[2026-01-24_14:40:51:431]$GPGSV,1,1,1,1,,,41,1*61

[2026-01-24_14:40:51:431]$GPRMC,000122.98,V,,,,,,,060180,,,N,V*08

[2026-01-24_14:40:52:434]$GPGGA,000123.98,,,,,0,,99.99,,M,,M,,*67

[2026-01-24_14:40:52:434]$GPGLL,,,,,000123.98,V,N*4B

[2026-01-24_14:40:52:434]$GPGSA,A,1,,,,,,,,,,,,,99.99,99.99,99.99,1*2D

[2026-01-24_14:40:52:434]$GPGSV,1,1,1,1,,,41,1*61

[2026-01-24_14:40:52:434]$GPRMC,000123.98,V,,,,,,,060180,,,N,V*09

[2026-01-24_14:40:53:434]$GPGGA,000124.98,,,,,0,,99.99,,M,,M,,*60

[2026-01-24_14:40:53:434]$GPGLL,,,,,000124.98,V,N*4C

[2026-01-24_14:40:53:434]$GPGSA,A,1,,,,,,,,,,,,,99.99,99.99,99.99,1*2D

[2026-01-24_14:40:53:434]$GPGSV,1,1,1,1,,,41,1*61

[2026-01-24_14:40:53:434]$GPRMC,000124.98,V,,,,,,,060180,,,N,V*0E

[2026-01-24_14:40:54:436]$GPGGA,000125.98,,,,,0,,99.99,,M,,M,,*61

[2026-01-24_14:40:54:436]$GPGLL,,,,,000125.98,V,N*4D

[2026-01-24_14:40:54:436]$GPGSA,A,1,,,,,,,,,,,,,99.99,99.99,99.99,1*2D

[2026-01-24_14:40:54:436]$GPGSV,1,1,1,1,,,41,1*61

[2026-01-24_14:40:54:436]$GPRMC,000125.98,V,,,,,,,060180,,,N,V*0F

[2026-01-24_14:40:55:432]$GPGGA,000126.98,,,,,0,,99.99,,M,,M,,*62

[2026-01-24_14:40:55:432]$GPGLL,,,,,000126.98,V,N*4E

[2026-01-24_14:40:55:432]$GPGSA,A,1,,,,,,,,,,,,,99.99,99.99,99.99,1*2D

[2026-01-24_14:40:55:432]$GPGSV,1,1,1,1,,,41,1*61

[2026-01-24_14:40:55:432]$GPRMC,000126.98,V,,,,,,,060180,,,N,V*0C

[2026-01-24_14:40:56:431]$GPGGA,000127.98,,,,,0,,99.99,,M,,M,,*63

[2026-01-24_14:40:56:431]$GPGLL,,,,,000127.98,V,N*4F

[2026-01-24_14:40:56:431]$GPGSA,A,1,,,,,,,,,,,,,99.99,99.99,99.99,1*2D

[2026-01-24_14:40:56:431]$GPGSV,1,1,1,1,,,39,1*6E

[2026-01-24_14:40:56:431]$GPRMC,000127.98,V,,,,,,,060180,,,N,V*0D

[2026-01-24_14:40:57:429]$GPGGA,000128.98,,,,,0,,99.99,,M,,M,,*6C

[2026-01-24_14:40:57:429]$GPGLL,,,,,000128.98,V,N*40

[2026-01-24_14:40:57:429]$GPGSA,A,1,,,,,,,,,,,,,99.99,99.99,99.99,1*2D

[2026-01-24_14:40:57:429]$GPGSV,1,1,1,1,,,39,1*6E

[2026-01-24_14:40:57:429]$GPRMC,000128.98,V,,,,,,,060180,,,N,V*02

[2026-01-24_14:40:58:433]$GPGGA,000129.98,,,,,0,,99.99,,M,,M,,*6D

[2026-01-24_14:40:58:433]$GPGLL,,,,,000129.98,V,N*41

[2026-01-24_14:40:58:433]$GPGSA,A,1,,,,,,,,,,,,,99.99,99.99,99.99,1*2D

[2026-01-24_14:40:58:433]$GPGSV,1,1,1,1,,,39,1*6E

[2026-01-24_14:40:58:433]$GPRMC,000129.98,V,,,,,,,060180,,,N,V*03

[2026-01-24_14:40:59:431]$GPGGA,000130.98,,,,,0,,99.99,,M,,M,,*65

[2026-01-24_14:40:59:431]$GPGLL,,,,,000130.98,V,N*49

[2026-01-24_14:40:59:431]$GPGSA,A,1,,,,,,,,,,,,,99.99,99.99,99.99,1*2D

[2026-01-24_14:40:59:431]$GPGSV,1,1,1,1,,,39,1*6E

[2026-01-24_14:40:59:431]$GPRMC,000130.98,V,,,,,,,060180,,,N,V*0B

[2026-01-24_14:41:00:433]$GPGGA,000131.98,,,,,0,,99.99,,M,,M,,*64

[2026-01-24_14:41:00:433]$GPGLL,,,,,000131.98,V,N*48

[2026-01-24_14:41:00:433]$GPGSA,A,1,,,,,,,,,,,,,99.99,99.99,99.99,1*2D

[2026-01-24_14:41:00:433]$GPGSV,1,1,1,1,,,39,1*6E

[2026-01-24_14:41:00:433]$GPRMC,000131.98,V,,,,,,,060180,,,N,V*0A

[2026-01-24_14:41:01:429]$GPGGA,000132.98,,,,,0,,99.99,,M,,M,,*67

[2026-01-24_14:41:01:429]$GPGLL,,,,,000132.98,V,N*4B

[2026-01-24_14:41:01:429]$GPGSA,A,1,,,,,,,,,,,,,99.99,99.99,99.99,1*2D

[2026-01-24_14:41:01:429]$GPGSV,1,1,1,1,,,41,1*61

[2026-01-24_14:41:01:429]$GPRMC,000132.98,V,,,,,,,060180,,,N,V*09

[2026-01-24_14:41:02:442]$GPGGA,000133.98,,,,,0,,99.99,,M,,M,,*66

[2026-01-24_14:41:02:442]$GPGLL,,,,,000133.98,V,N*4A

[2026-01-24_14:41:02:442]$GPGSA,A,1,,,,,,,,,,,,,99.99,99.99,99.99,1*2D

[2026-01-24_14:41:02:442]$GPGSV,1,1,1,1,,,41,1*61

[2026-01-24_14:41:02:442]$GPRMC,000133.98,V,,,,,,,060180,,,N,V*08

[2026-01-24_14:41:03:439]$GPGGA,000134.98,,,,,0,,99.99,,M,,M,,*61

[2026-01-24_14:41:03:439]$GPGLL,,,,,000134.98,V,N*4D

[2026-01-24_14:41:03:439]$GPGSA,A,1,,,,,,,,,,,,,99.99,99.99,99.99,1*2D

[2026-01-24_14:41:03:439]$GPGSV,1,1,1,1,,,41,1*61

[2026-01-24_14:41:03:439]$GPRMC,000134.98,V,,,,,,,060180,,,N,V*0F

[2026-01-24_14:41:04:442]$GPGGA,000135.98,,,,,0,,99.99,,M,,M,,*60

[2026-01-24_14:41:04:442]$GPGLL,,,,,000135.98,V,N*4C

[2026-01-24_14:41:04:442]$GPGSA,A,1,,,,,,,,,,,,,99.99,99.99,99.99,1*2D

[2026-01-24_14:41:04:442]$GPGSV,1,1,1,1,,,41,1*61

[2026-01-24_14:41:04:442]$GPRMC,000135.98,V,,,,,,,060180,,,N,V*0E

[2026-01-24_14:41:05:454]$GPGGA,000136.98,,,,,0,,99.99,,M,,M,,*63

[2026-01-24_14:41:05:454]$GPGLL,,,,,000136.98,V,N*4F

[2026-01-24_14:41:05:454]$GPGSA,A,1,,,,,,,,,,,,,99.99,99.99,99.99,1*2D

[2026-01-24_14:41:05:454]$GPGSV,1,1,1,1,,,41,1*61

[2026-01-24_14:41:05:454]$GPRMC,000136.98,V,,,,,,,060180,,,N,V*0D

[2026-01-24_14:41:06:441]$GPGGA,000137.98,,,,,0,,99.99,,M,,M,,*62

[2026-01-24_14:41:06:441]$GPGLL,,,,,000137.98,V,N*4E

[2026-01-24_14:41:06:441]$GPGSA,A,1,,,,,,,,,,,,,99.99,99.99,99.99,1*2D

[2026-01-24_14:41:06:441]$GPGSV,1,1,1,1,,,40,1*60

[2026-01-24_14:41:06:441]$GPRMC,000137.98,V,,,,,,,060180,,,N,V*0C

[2026-01-24_14:41:07:450]$GPGGA,000138.98,,,,,0,,99.99,,M,,M,,*6D

[2026-01-24_14:41:07:450]$GPGLL,,,,,000138.98,V,N*41

[2026-01-24_14:41:07:450]$GPGSA,A,1,,,,,,,,,,,,,99.99,99.99,99.99,1*2D

[2026-01-24_14:41:07:450]$GPGSV,1,1,1,1,,,40,1*60

[2026-01-24_14:41:07:450]$GPRMC,000138.98,V,,,,,,,060180,,,N,V*03

[2026-01-24_14:41:08:453]$GPGGA,000139.98,,,,,0,,99.99,,M,,M,,*6C

[2026-01-24_14:41:08:453]$GPGLL,,,,,000139.98,V,N*40

[2026-01-24_14:41:08:453]$GPGSA,A,1,,,,,,,,,,,,,99.99,99.99,99.99,1*2D

[2026-01-24_14:41:08:453]$GPGSV,1,1,1,1,,,41,1*61

[2026-01-24_14:41:08:453]$GPRMC,000139.98,V,,,,,,,060180,,,N,V*02

[2026-01-24_14:41:09:442]$GPGGA,000140.98,,,,,0,,99.99,,M,,M,,*62

[2026-01-24_14:41:09:442]$GPGLL,,,,,000140.98,V,N*4E

[2026-01-24_14:41:09:442]$GPGSA,A,1,,,,,,,,,,,,,99.99,99.99,99.99,1*2D

[2026-01-24_14:41:09:442]$GPGSV,1,1,1,1,,,41,1*61

[2026-01-24_14:41:09:442]$GPRMC,000140.98,V,,,,,,,060180,,,N,V*0C

[2026-01-24_14:41:10:447]$GPGGA,000141.98,,,,,0,,99.99,,M,,M,,*63

[2026-01-24_14:41:10:447]$GPGLL,,,,,000141.98,V,N*4F

[2026-01-24_14:41:10:447]$GPGSA,A,1,,,,,,,,,,,,,99.99,99.99,99.99,1*2D

[2026-01-24_14:41:10:447]$GPGSV,1,1,1,1,,,41,1*61

[2026-01-24_14:41:10:447]$GPRMC,000141.98,V,,,,,,,060180,,,N,V*0D

[2026-01-24_14:41:11:449]$GPGGA,000142.98,,,,,0,,99.99,,M,,M,,*60

[2026-01-24_14:41:11:449]$GPGLL,,,,,000142.98,V,N*4C

[2026-01-24_14:41:11:449]$GPGSA,A,1,,,,,,,,,,,,,99.99,99.99,99.99,1*2D

[2026-01-24_14:41:11:449]$GPGSV,1,1,1,1,,,41,1*61

[2026-01-24_14:41:11:449]$GPRMC,000142.98,V,,,,,,,060180,,,N,V*0E

[2026-01-24_14:41:12:444]$GPGGA,000143.98,,,,,0,,99.99,,M,,M,,*61

[2026-01-24_14:41:12:444]$GPGLL,,,,,000143.98,V,N*4D

[2026-01-24_14:41:12:444]$GPGSA,A,1,,,,,,,,,,,,,99.99,99.99,99.99,1*2D

[2026-01-24_14:41:12:444]$GPGSV,1,1,1,1,,,41,1*61

[2026-01-24_14:41:12:444]$GPRMC,000143.98,V,,,,,,,060180,,,N,V*0F

[2026-01-24_14:41:13:451]$GPGGA,000144.99,,,,,0,,99.99,,M,,M,,*67

[2026-01-24_14:41:13:451]$GPGLL,,,,,000144.99,V,N*4B

[2026-01-24_14:41:13:451]$GPGSA,A,1,,,,,,,,,,,,,99.99,99.99,99.99,1*2D

[2026-01-24_14:41:13:451]$GPGSV,1,1,1,1,,,41,1*61

[2026-01-24_14:41:13:451]$GPRMC,000144.99,V,,,,,,,060180,,,N,V*09

[2026-01-24_14:41:14:443]$GPGGA,000145.99,,,,,0,,99.99,,M,,M,,*66

[2026-01-24_14:41:14:443]$GPGLL,,,,,000145.99,V,N*4A

[2026-01-24_14:41:14:443]$GPGSA,A,1,,,,,,,,,,,,,99.99,99.99,99.99,1*2D

[2026-01-24_14:41:14:443]$GPGSV,1,1,1,1,,,41,1*61

[2026-01-24_14:41:14:443]$GPRMC,000145.99,V,,,,,,,060180,,,N,V*08

[2026-01-24_14:41:15:443]$GPGGA,000146.99,,,,,0,,99.99,,M,,M,,*65

[2026-01-24_14:41:15:443]$GPGLL,,,,,000146.99,V,N*49

[2026-01-24_14:41:15:443]$GPGSA,A,1,,,,,,,,,,,,,99.99,99.99,99.99,1*2D

[2026-01-24_14:41:15:443]$GPGSV,1,1,1,1,,,41,1*61

[2026-01-24_14:41:15:443]$GPRMC,000146.99,V,,,,,,,060180,,,N,V*0B

[2026-01-24_14:41:16:453]$GPGGA,000147.99,,,,,0,,99.99,,M,,M,,*64

[2026-01-24_14:41:16:453]$GPGLL,,,,,000147.99,V,N*48

[2026-01-24_14:41:16:453]$GPGSA,A,1,,,,,,,,,,,,,99.99,99.99,99.99,1*2D

[2026-01-24_14:41:16:453]$GPGSV,1,1,1,1,,,41,1*61

[2026-01-24_14:41:16:453]$GPRMC,000147.99,V,,,,,,,060180,,,N,V*0A

[2026-01-24_14:41:17:447]$GPGGA,000148.99,,,,,0,,99.99,,M,,M,,*6B

[2026-01-24_14:41:17:447]$GPGLL,,,,,000148.99,V,N*47

[2026-01-24_14:41:17:447]$GPGSA,A,1,,,,,,,,,,,,,99.99,99.99,99.99,1*2D

[2026-01-24_14:41:17:447]$GPGSV,1,1,1,1,,,41,1*61

[2026-01-24_14:41:17:447]$GPRMC,000148.99,V,,,,,,,060180,,,N,V*05

[2026-01-24_14:41:18:444]$GPGGA,000149.99,,,,,0,,99.99,,M,,M,,*6A

[2026-01-24_14:41:18:444]$GPGLL,,,,,000149.99,V,N*46

[2026-01-24_14:41:18:444]$GPGSA,A,1,,,,,,,,,,,,,99.99,99.99,99.99,1*2D

[2026-01-24_14:41:18:444]$GPGSV,1,1,1,1,,,41,1*61

[2026-01-24_14:41:18:444]$GPRMC,000149.99,V,,,,,,,060180,,,N,V*04

[2026-01-24_14:41:19:451]$GPGGA,000150.99,,,,,0,,99.99,,M,,M,,*62

[2026-01-24_14:41:19:451]$GPGLL,,,,,000150.99,V,N*4E

[2026-01-24_14:41:19:451]$GPGSA,A,1,,,,,,,,,,,,,99.99,99.99,99.99,1*2D

[2026-01-24_14:41:19:451]$GPGSV,1,1,1,1,,,41,1*61

[2026-01-24_14:41:19:451]$GPRMC,000150.99,V,,,,,,,060180,,,N,V*0C

[2026-01-24_14:41:20:453]$GPGGA,000151.99,,,,,0,,99.99,,M,,M,,*63

[2026-01-24_14:41:20:453]$GPGLL,,,,,000151.99,V,N*4F

[2026-01-24_14:41:20:453]$GPGSA,A,1,,,,,,,,,,,,,99.99,99.99,99.99,1*2D

[2026-01-24_14:41:20:453]$GPGSV,1,1,1,1,,,41,1*61

[2026-01-24_14:41:20:453]$GPRMC,000151.99,V,,,,,,,060180,,,N,V*0D

[2026-01-24_14:41:21:458]$GPGGA,000152.99,,,,,0,,99.99,,M,,M,,*60

[2026-01-24_14:41:21:458]$GPGLL,,,,,000152.99,V,N*4C

[2026-01-24_14:41:21:458]$GPGSA,A,1,,,,,,,,,,,,,99.99,99.99,99.99,1*2D

[2026-01-24_14:41:21:458]$GPGSV,1,1,1,1,,,41,1*61

[2026-01-24_14:41:21:458]$GPRMC,000152.99,V,,,,,,,060180,,,N,V*0E

[2026-01-24_14:41:22:445]$GPGGA,000153.99,,,,,0,,99.99,,M,,M,,*61

[2026-01-24_14:41:22:445]$GPGLL,,,,,000153.99,V,N*4D

[2026-01-24_14:41:22:445]$GPGSA,A,1,,,,,,,,,,,,,99.99,99.99,99.99,1*2D

[2026-01-24_14:41:22:445]$GPGSV,1,1,1,1,,,41,1*61

[2026-01-24_14:41:22:445]$GPRMC,000153.99,V,,,,,,,060180,,,N,V*0F

[2026-01-24_14:41:23:443]$GPGGA,000154.99,,,,,0,,99.99,,M,,M,,*66

[2026-01-24_14:41:23:443]$GPGLL,,,,,000154.99,V,N*4A

[2026-01-24_14:41:23:443]$GPGSA,A,1,,,,,,,,,,,,,99.99,99.99,99.99,1*2D

[2026-01-24_14:41:23:443]$GPGSV,1,1,1,1,,,41,1*61

[2026-01-24_14:41:23:443]$GPRMC,000154.99,V,,,,,,,060180,,,N,V*08

[2026-01-24_14:41:24:447]$GPGGA,000155.99,,,,,0,,99.99,,M,,M,,*67

[2026-01-24_14:41:24:447]$GPGLL,,,,,000155.99,V,N*4B

[2026-01-24_14:41:24:447]$GPGSA,A,1,,,,,,,,,,,,,99.99,99.99,99.99,1*2D

[2026-01-24_14:41:24:447]$GPGSV,1,1,1,1,,,41,1*61

[2026-01-24_14:41:24:447]$GPRMC,000155.99,V,,,,,,,060180,,,N,V*09

[2026-01-24_14:41:25:448]$GPGGA,000156.99,,,,,0,,99.99,,M,,M,,*64

[2026-01-24_14:41:25:448]$GPGLL,,,,,000156.99,V,N*48

[2026-01-24_14:41:25:448]$GPGSA,A,1,,,,,,,,,,,,,99.99,99.99,99.99,1*2D

[2026-01-24_14:41:25:448]$GPGSV,1,1,1,1,,,41,1*61

[2026-01-24_14:41:25:448]$GPRMC,000156.99,V,,,,,,,060180,,,N,V*0A

[2026-01-24_14:41:26:445]$GPGGA,000157.99,,,,,0,,99.99,,M,,M,,*65

[2026-01-24_14:41:26:445]$GPGLL,,,,,000157.99,V,N*49

[2026-01-24_14:41:26:445]$GPGSA,A,1,,,,,,,,,,,,,99.99,99.99,99.99,1*2D

[2026-01-24_14:41:26:445]$GPGSV,1,1,1,1,,,41,1*61

[2026-01-24_14:41:26:445]$GPRMC,000157.99,V,,,,,,,060180,,,N,V*0B

[2026-01-24_14:41:27:453]$GPGGA,000158.99,,,,,0,,99.99,,M,,M,,*6A

[2026-01-24_14:41:27:453]$GPGLL,,,,,000158.99,V,N*46

[2026-01-24_14:41:27:453]$GPGSA,A,1,,,,,,,,,,,,,99.99,99.99,99.99,1*2D

[2026-01-24_14:41:27:453]$GPGSV,1,1,1,1,,,41,1*61

[2026-01-24_14:41:27:453]$GPRMC,000158.99,V,,,,,,,060180,,,N,V*04

[2026-01-24_14:41:28:450]$GPGGA,000159.99,,,,,0,,99.99,,M,,M,,*6B

[2026-01-24_14:41:28:450]$GPGLL,,,,,000159.99,V,N*47

[2026-01-24_14:41:28:450]$GPGSA,A,1,,,,,,,,,,,,,99.99,99.99,99.99,1*2D

[2026-01-24_14:41:28:450]$GPGSV,1,1,1,1,,,41,1*61

[2026-01-24_14:41:28:450]$GPRMC,000159.99,V,,,,,,,060180,,,N,V*05

[2026-01-24_14:41:29:445]$GPGGA,000200.99,,,,,0,,99.99,,M,,M,,*64

[2026-01-24_14:41:29:445]$GPGLL,,,,,000200.99,V,N*48

[2026-01-24_14:41:29:445]$GPGSA,A,1,,,,,,,,,,,,,99.99,99.99,99.99,1*2D

[2026-01-24_14:41:29:445]$GPGSV,1,1,1,1,,,41,1*61

[2026-01-24_14:41:29:445]$GPRMC,000200.99,V,,,,,,,060180,,,N,V*0A

[2026-01-24_14:41:30:451]$GPGGA,000201.99,,,,,0,,99.99,,M,,M,,*65

[2026-01-24_14:41:30:451]$GPGLL,,,,,000201.99,V,N*49

[2026-01-24_14:41:30:451]$GPGSA,A,1,,,,,,,,,,,,,99.99,99.99,99.99,1*2D

[2026-01-24_14:41:30:451]$GPGSV,1,1,1,1,,,41,1*61

[2026-01-24_14:41:30:451]$GPRMC,000201.99,V,,,,,,,060180,,,N,V*0B

[2026-01-24_14:41:31:455]$GPGGA,000202.99,,,,,0,,99.99,,M,,M,,*66

[2026-01-24_14:41:31:455]$GPGLL,,,,,000202.99,V,N*4A

[2026-01-24_14:41:31:455]$GPGSA,A,1,,,,,,,,,,,,,99.99,99.99,99.99,1*2D

[2026-01-24_14:41:31:455]$GPGSV,1,1,1,1,,,41,1*61

[2026-01-24_14:41:31:455]$GPRMC,000202.99,V,,,,,,,060180,,,N,V*08

[2026-01-24_14:41:32:457]$GPGGA,000203.99,,,,,0,,99.99,,M,,M,,*67

[2026-01-24_14:41:32:457]$GPGLL,,,,,000203.99,V,N*4B

[2026-01-24_14:41:32:457]$GPGSA,A,1,,,,,,,,,,,,,99.99,99.99,99.99,1*2D

[2026-01-24_14:41:32:457]$GPGSV,1,1,1,1,,,41,1*61

[2026-01-24_14:41:32:457]$GPRMC,000203.99,V,,,,,,,060180,,,N,V*09

[2026-01-24_14:41:33:445]$GPGGA,000204.99,,,,,0,,99.99,,M,,M,,*60

[2026-01-24_14:41:33:445]$GPGLL,,,,,000204.99,V,N*4C

[2026-01-24_14:41:33:445]$GPGSA,A,1,,,,,,,,,,,,,99.99,99.99,99.99,1*2D

[2026-01-24_14:41:33:445]$GPGSV,1,1,1,1,,,39,1*6E

[2026-01-24_14:41:33:445]$GPRMC,000204.99,V,,,,,,,060180,,,N,V*0E

[2026-01-24_14:41:34:454]$GPGGA,000205.99,,,,,0,,99.99,,M,,M,,*61

[2026-01-24_14:41:34:454]$GPGLL,,,,,000205.99,V,N*4D

[2026-01-24_14:41:34:454]$GPGSA,A,1,,,,,,,,,,,,,99.99,99.99,99.99,1*2D

[2026-01-24_14:41:34:454]$GPGSV,1,1,1,1,,,39,1*6E

[2026-01-24_14:41:34:454]$GPRMC,000205.99,V,,,,,,,060180,,,N,V*0F

[2026-01-24_14:41:35:457]$GPGGA,000206.99,,,,,0,,99.99,,M,,M,,*62

[2026-01-24_14:41:35:457]$GPGLL,,,,,000206.99,V,N*4E

[2026-01-24_14:41:35:457]$GPGSA,A,1,,,,,,,,,,,,,99.99,99.99,99.99,1*2D

[2026-01-24_14:41:35:457]$GPGSV,1,1,1,1,,,39,1*6E

[2026-01-24_14:41:35:457]$GPRMC,000206.99,V,,,,,,,060180,,,N,V*0C

[2026-01-24_14:41:36:456]$GPGGA,000207.99,,,,,0,,99.99,,M,,M,,*63

[2026-01-24_14:41:36:456]$GPGLL,,,,,000207.99,V,N*4F

[2026-01-24_14:41:36:456]$GPGSA,A,1,,,,,,,,,,,,,99.99,99.99,99.99,1*2D

[2026-01-24_14:41:36:456]$GPGSV,1,1,1,1,,,39,1*6E

[2026-01-24_14:41:36:456]$GPRMC,000207.99,V,,,,,,,060180,,,N,V*0D

[2026-01-24_14:41:37:459]$GPGGA,000208.99,,,,,0,,99.99,,M,,M,,*6C

[2026-01-24_14:41:37:459]$GPGLL,,,,,000208.99,V,N*40

[2026-01-24_14:41:37:459]$GPGSA,A,1,,,,,,,,,,,,,99.99,99.99,99.99,1*2D

[2026-01-24_14:41:37:459]$GPGSV,1,1,1,1,,,39,1*6E

[2026-01-24_14:41:37:459]$GPRMC,000208.99,V,,,,,,,060180,,,N,V*02

[2026-01-24_14:41:38:461]$GPGGA,000209.99,,,,,0,,99.99,,M,,M,,*6D

[2026-01-24_14:41:38:461]$GPGLL,,,,,000209.99,V,N*41

[2026-01-24_14:41:38:461]$GPGSA,A,1,,,,,,,,,,,,,99.99,99.99,99.99,1*2D

[2026-01-24_14:41:38:461]$GPGSV,1,1,1,1,,,39,1*6E

[2026-01-24_14:41:38:461]$GPRMC,000209.99,V,,,,,,,060180,,,N,V*03

[2026-01-24_14:41:39:482]$GPGGA,000211.02,,,,,0,,99.99,,M,,M,,*66

[2026-01-24_14:41:39:482]$GPGLL,,,,,000211.02,V,N*4A

[2026-01-24_14:41:39:482]$GPGSA,A,1,,,,,,,,,,,,,99.99,99.99,99.99,1*2D

[2026-01-24_14:41:39:482]$GPGSV,1,1,1,1,,,41,1*61

[2026-01-24_14:41:39:482]$GPRMC,000211.02,V,,,,,,,060180,,,N,V*08

[2026-01-24_14:41:40:452]$GPGGA,000211.99,,,,,0,,99.99,,M,,M,,*64

[2026-01-24_14:41:40:452]$GPGLL,,,,,000211.99,V,N*48

[2026-01-24_14:41:40:452]$GPGSA,A,1,,,,,,,,,,,,,99.99,99.99,99.99,1*2D

[2026-01-24_14:41:40:452]$GPGSV,1,1,1,1,,,42,1*62

[2026-01-24_14:41:40:452]$GPRMC,000211.99,V,,,,,,,060180,,,N,V*0A

[2026-01-24_14:41:41:450]$GPGGA,000212.00,,,,,0,,99.99,,M,,M,,*67

[2026-01-24_14:41:41:450]$GPGLL,,,,,000212.00,V,N*4B

[2026-01-24_14:41:41:450]$GPGSA,A,1,,,,,,,,,,,,,99.99,99.99,99.99,1*2D

[2026-01-24_14:41:41:450]$GPGSV,1,1,1,1,,,42,1*62

[2026-01-24_14:41:41:450]$GPRMC,000212.00,V,,,,,,,060180,,,N,V*09

[2026-01-24_14:41:42:467]$GPGGA,000213.00,,,,,0,,99.99,,M,,M,,*66

[2026-01-24_14:41:42:467]$GPGLL,,,,,000213.00,V,N*4A

[2026-01-24_14:41:42:467]$GPGSA,A,1,,,,,,,,,,,,,99.99,99.99,99.99,1*2D

[2026-01-24_14:41:42:467]$GPGSV,1,1,1,1,,,42,1*62

[2026-01-24_14:41:42:467]$GPRMC,000213.00,V,,,,,,,060180,,,N,V*08

[2026-01-24_14:41:43:463]$GPGGA,000214.00,,,,,0,,99.99,,M,,M,,*61

[2026-01-24_14:41:43:463]$GPGLL,,,,,000214.00,V,N*4D

[2026-01-24_14:41:43:463]$GPGSA,A,1,,,,,,,,,,,,,99.99,99.99,99.99,1*2D

[2026-01-24_14:41:43:463]$GPGSV,1,1,1,1,,,42,1*62

[2026-01-24_14:41:43:463]$GPRMC,000214.00,V,,,,,,,060180,,,N,V*0F

[2026-01-24_14:41:44:452]$GPGGA,000215.00,,,,,0,,99.99,,M,,M,,*60

[2026-01-24_14:41:44:452]$GPGLL,,,,,000215.00,V,N*4C

[2026-01-24_14:41:44:452]$GPGSA,A,1,,,,,,,,,,,,,99.99,99.99,99.99,1*2D

[2026-01-24_14:41:44:452]$GPGSV,1,1,1,1,,,42,1*62

[2026-01-24_14:41:44:452]$GPRMC,000215.00,V,,,,,,,060180,,,N,V*0E

[2026-01-24_14:41:45:456]$GPGGA,000216.00,,,,,0,,99.99,,M,,M,,*63

[2026-01-24_14:41:45:456]$GPGLL,,,,,000216.00,V,N*4F

[2026-01-24_14:41:45:456]$GPGSA,A,1,,,,,,,,,,,,,99.99,99.99,99.99,1*2D

[2026-01-24_14:41:45:456]$GPGSV,1,1,1,1,,,42,1*62

[2026-01-24_14:41:45:456]$GPRMC,000216.00,V,,,,,,,060180,,,N,V*0D

[2026-01-24_14:41:46:463]$GPGGA,000217.00,,,,,0,,99.99,,M,,M,,*62

[2026-01-24_14:41:46:463]$GPGLL,,,,,000217.00,V,N*4E

[2026-01-24_14:41:46:463]$GPGSA,A,1,,,,,,,,,,,,,99.99,99.99,99.99,1*2D

[2026-01-24_14:41:46:463]$GPGSV,1,1,1,1,,,42,1*62

[2026-01-24_14:41:46:463]$GPRMC,000217.00,V,,,,,,,060180,,,N,V*0C

[2026-01-24_14:41:47:457]$GPGGA,000218.00,,,,,0,,99.99,,M,,M,,*6D

[2026-01-24_14:41:47:457]$GPGLL,,,,,000218.00,V,N*41

[2026-01-24_14:41:47:457]$GPGSA,A,1,,,,,,,,,,,,,99.99,99.99,99.99,1*2D

[2026-01-24_14:41:47:457]$GPGSV,1,1,1,1,,,42,1*62

[2026-01-24_14:41:47:457]$GPRMC,000218.00,V,,,,,,,060180,,,N,V*03

[2026-01-24_14:41:48:453]$GPGGA,000219.00,,,,,0,,99.99,,M,,M,,*6C

[2026-01-24_14:41:48:453]$GPGLL,,,,,000219.00,V,N*40

[2026-01-24_14:41:48:453]$GPGSA,A,1,,,,,,,,,,,,,99.99,99.99,99.99,1*2D

[2026-01-24_14:41:48:453]$GPGSV,1,1,1,1,,,42,1*62

[2026-01-24_14:41:48:453]$GPRMC,000219.00,V,,,,,,,060180,,,N,V*02

[2026-01-24_14:41:49:464]$GPGGA,000220.00,,,,,0,,99.99,,M,,M,,*66

[2026-01-24_14:41:49:464]$GPGLL,,,,,000220.00,V,N*4A

[2026-01-24_14:41:49:464]$GPGSA,A,1,,,,,,,,,,,,,99.99,99.99,99.99,1*2D

[2026-01-24_14:41:49:464]$GPGSV,1,1,1,1,,,42,1*62

[2026-01-24_14:41:49:464]$GPRMC,000220.00,V,,,,,,,060180,,,N,V*08

[2026-01-24_14:41:50:457]$GPGGA,000221.00,,,,,0,,99.99,,M,,M,,*67

[2026-01-24_14:41:50:457]$GPGLL,,,,,000221.00,V,N*4B

[2026-01-24_14:41:50:457]$GPGSA,A,1,,,,,,,,,,,,,99.99,99.99,99.99,1*2D

[2026-01-24_14:41:50:457]$GPGSV,1,1,1,1,,,42,1*62

[2026-01-24_14:41:50:457]$GPRMC,000221.00,V,,,,,,,060180,,,N,V*09

[2026-01-24_14:41:51:460]$GPGGA,000222.00,,,,,0,,99.99,,M,,M,,*64

[2026-01-24_14:41:51:460]$GPGLL,,,,,000222.00,V,N*48

[2026-01-24_14:41:51:460]$GPGSA,A,1,,,,,,,,,,,,,99.99,99.99,99.99,1*2D

[2026-01-24_14:41:51:460]$GPGSV,1,1,1,1,,,42,1*62

[2026-01-24_14:41:51:460]$GPRMC,000222.00,V,,,,,,,060180,,,N,V*0A

[2026-01-24_14:41:52:460]$GPGGA,000223.00,,,,,0,,99.99,,M,,M,,*65

[2026-01-24_14:41:52:460]$GPGLL,,,,,000223.00,V,N*49

[2026-01-24_14:41:52:460]$GPGSA,A,1,,,,,,,,,,,,,99.99,99.99,99.99,1*2D

[2026-01-24_14:41:52:460]$GPGSV,1,1,1,1,,,42,1*62

[2026-01-24_14:41:52:460]$GPRMC,000223.00,V,,,,,,,060180,,,N,V*0B

[2026-01-24_14:41:53:457]$GPGGA,000224.00,,,,,0,,99.99,,M,,M,,*62

[2026-01-24_14:41:53:457]$GPGLL,,,,,000224.00,V,N*4E

[2026-01-24_14:41:53:457]$GPGSA,A,1,,,,,,,,,,,,,99.99,99.99,99.99,1*2D

[2026-01-24_14:41:53:457]$GPGSV,1,1,1,1,,,42,1*62

[2026-01-24_14:41:53:457]$GPRMC,000224.00,V,,,,,,,060180,,,N,V*0C

[2026-01-24_14:41:54:467]$GPGGA,000226.00,,,,,0,,99.99,,M,,M,,*60

[2026-01-24_14:41:54:467]$GPGLL,,,,,000226.00,V,N*4C

[2026-01-24_14:41:54:467]$GPGSA,A,1,,,,,,,,,,,,,99.99,99.99,99.99,1*2D

[2026-01-24_14:41:54:467]$GPGSV,1,1,1,1,,,42,1*62

[2026-01-24_14:41:54:467]$GPRMC,000226.00,V,,,,,,,060180,,,N,V*0E

[2026-01-24_14:41:55:467]$GPGGA,000227.00,,,,,0,,99.99,,M,,M,,*61

[2026-01-24_14:41:55:467]$GPGLL,,,,,000227.00,V,N*4D

[2026-01-24_14:41:55:467]$GPGSA,A,1,,,,,,,,,,,,,99.99,99.99,99.99,1*2D

[2026-01-24_14:41:55:467]$GPGSV,1,1,1,1,,,42,1*62

[2026-01-24_14:41:55:467]$GPRMC,000227.00,V,,,,,,,060180,,,N,V*0F

[2026-01-24_14:41:56:456]$GPGGA,000228.00,,,,,0,,99.99,,M,,M,,*6E

[2026-01-24_14:41:56:456]$GPGLL,,,,,000228.00,V,N*42

[2026-01-24_14:41:56:456]$GPGSA,A,1,,,,,,,,,,,,,99.99,99.99,99.99,1*2D

[2026-01-24_14:41:56:456]$GPGSV,1,1,1,1,,,40,1*60

[2026-01-24_14:41:56:456]$GPRMC,000228.00,V,,,,,,,060180,,,N,V*00

[2026-01-24_14:41:57:456]$GPGGA,000229.00,,,,,0,,99.99,,M,,M,,*6F

[2026-01-24_14:41:57:456]$GPGLL,,,,,000229.00,V,N*43

[2026-01-24_14:41:57:456]$GPGSA,A,1,,,,,,,,,,,,,99.99,99.99,99.99,1*2D

[2026-01-24_14:41:57:456]$GPGSV,1,1,1,1,,,40,1*60

[2026-01-24_14:41:57:456]$GPRMC,000229.00,V,,,,,,,060180,,,N,V*01

[2026-01-24_14:41:58:466]$GPGGA,000230.00,,,,,0,,99.99,,M,,M,,*67

[2026-01-24_14:41:58:466]$GPGLL,,,,,000230.00,V,N*4B

[2026-01-24_14:41:58:466]$GPGSA,A,1,,,,,,,,,,,,,99.99,99.99,99.99,1*2D

[2026-01-24_14:41:58:466]$GPGSV,1,1,1,1,,,40,1*60

[2026-01-24_14:41:58:466]$GPRMC,000230.00,V,,,,,,,060180,,,N,V*09

[2026-01-24_14:41:59:465]$GPGGA,000231.00,,,,,0,,99.99,,M,,M,,*66

[2026-01-24_14:41:59:465]$GPGLL,,,,,000231.00,V,N*4A

[2026-01-24_14:41:59:465]$GPGSA,A,1,,,,,,,,,,,,,99.99,99.99,99.99,1*2D

[2026-01-24_14:41:59:465]$GPGSV,1,1,1,1,,,40,1*60

[2026-01-24_14:41:59:465]$GPRMC,000231.00,V,,,,,,,060180,,,N,V*08

[2026-01-24_14:42:00:466]$GPGGA,000232.00,,,,,0,,99.99,,M,,M,,*65

[2026-01-24_14:42:00:466]$GPGLL,,,,,000232.00,V,N*49

[2026-01-24_14:42:00:466]$GPGSA,A,1,,,,,,,,,,,,,99.99,99.99,99.99,1*2D

[2026-01-24_14:42:00:466]$GPGSV,1,1,1,1,,,40,1*60

[2026-01-24_14:42:00:466]$GPRMC,000232.00,V,,,,,,,060180,,,N,V*0B

[2026-01-24_14:42:01:454]$GPGGA,000233.00,,,,,0,,99.99,,M,,M,,*64

[2026-01-24_14:42:01:454]$GPGLL,,,,,000233.00,V,N*48

[2026-01-24_14:42:01:454]$GPGSA,A,1,,,,,,,,,,,,,99.99,99.99,99.99,1*2D

[2026-01-24_14:42:01:454]$GPGSV,1,1,1,1,,,40,1*60

[2026-01-24_14:42:01:454]$GPRMC,000233.00,V,,,,,,,060180,,,N,V*0A

[2026-01-24_14:42:02:467]$GPGGA,000234.00,,,,,0,,99.99,,M,,M,,*63

[2026-01-24_14:42:02:467]$GPGLL,,,,,000234.00,V,N*4F

[2026-01-24_14:42:02:467]$GPGSA,A,1,,,,,,,,,,,,,99.99,99.99,99.99,1*2D

[2026-01-24_14:42:02:467]$GPGSV,1,1,1,1,,,40,1*60

[2026-01-24_14:42:02:467]$GPRMC,000234.00,V,,,,,,,060180,,,N,V*0D

[2026-01-24_14:42:03:458]$GPGGA,000235.00,,,,,0,,99.99,,M,,M,,*62

[2026-01-24_14:42:03:458]$GPGLL,,,,,000235.00,V,N*4E

[2026-01-24_14:42:03:458]$GPGSA,A,1,,,,,,,,,,,,,99.99,99.99,99.99,1*2D

[2026-01-24_14:42:03:458]$GPGSV,1,1,1,1,,,40,1*60

[2026-01-24_14:42:03:458]$GPRMC,000235.00,V,,,,,,,060180,,,N,V*0C

[2026-01-24_14:42:04:455]$GPGGA,000236.00,,,,,0,,99.99,,M,,M,,*61

[2026-01-24_14:42:04:455]$GPGLL,,,,,000236.00,V,N*4D

[2026-01-24_14:42:04:455]$GPGSA,A,1,,,,,,,,,,,,,99.99,99.99,99.99,1*2D

[2026-01-24_14:42:04:455]$GPGSV,1,1,1,1,,,40,1*60

[2026-01-24_14:42:04:455]$GPRMC,000236.00,V,,,,,,,060180,,,N,V*0F

[2026-01-24_14:42:05:469]$GPGGA,000237.00,,,,,0,,99.99,,M,,M,,*60

[2026-01-24_14:42:05:469]$GPGLL,,,,,000237.00,V,N*4C

[2026-01-24_14:42:05:469]$GPGSA,A,1,,,,,,,,,,,,,99.99,99.99,99.99,1*2D

[2026-01-24_14:42:05:469]$GPGSV,1,1,1,1,,,39,1*6E

[2026-01-24_14:42:05:469]$GPRMC,000237.00,V,,,,,,,060180,,,N,V*0E

[2026-01-24_14:42:06:459]$GPGGA,000238.00,,,,,0,,99.99,,M,,M,,*6F

[2026-01-24_14:42:06:459]$GPGLL,,,,,000238.00,V,N*43

[2026-01-24_14:42:06:459]$GPGSA,A,1,,,,,,,,,,,,,99.99,99.99,99.99,1*2D

[2026-01-24_14:42:06:459]$GPGSV,1,1,1,1,,,39,1*6E

[2026-01-24_14:42:06:459]$GPRMC,000238.00,V,,,,,,,060180,,,N,V*01

[2026-01-24_14:42:07:465]$GPGGA,000239.01,,,,,0,,99.99,,M,,M,,*6F

[2026-01-24_14:42:07:465]$GPGLL,,,,,000239.01,V,N*43

[2026-01-24_14:42:07:465]$GPGSA,A,1,,,,,,,,,,,,,99.99,99.99,99.99,1*2D

[2026-01-24_14:42:07:465]$GPGSV,1,1,1,1,,,39,1*6E

[2026-01-24_14:42:07:465]$GPRMC,000239.01,V,,,,,,,060180,,,N,V*01

[2026-01-24_14:42:08:461]$GPGGA,000240.01,,,,,0,,99.99,,M,,M,,*61

[2026-01-24_14:42:08:461]$GPGLL,,,,,000240.01,V,N*4D

[2026-01-24_14:42:08:461]$GPGSA,A,1,,,,,,,,,,,,,99.99,99.99,99.99,1*2D

[2026-01-24_14:42:08:461]$GPGSV,1,1,1,1,,,39,1*6E

[2026-01-24_14:42:08:461]$GPRMC,000240.01,V,,,,,,,060180,,,N,V*0F

[2026-01-24_14:42:09:467]$GPGGA,000241.01,,,,,0,,99.99,,M,,M,,*60

[2026-01-24_14:42:09:467]$GPGLL,,,,,000241.01,V,N*4C

[2026-01-24_14:42:09:467]$GPGSA,A,1,,,,,,,,,,,,,99.99,99.99,99.99,1*2D

[2026-01-24_14:42:09:467]$GPGSV,1,1,1,1,,,39,1*6E

[2026-01-24_14:42:09:467]$GPRMC,000241.01,V,,,,,,,060180,,,N,V*0E

[2026-01-24_14:42:10:465]$GPGGA,000242.01,,,,,0,,99.99,,M,,M,,*63

[2026-01-24_14:42:10:465]$GPGLL,,,,,000242.01,V,N*4F

[2026-01-24_14:42:10:465]$GPGSA,A,1,,,,,,,,,,,,,99.99,99.99,99.99,1*2D

[2026-01-24_14:42:10:465]$GPGSV,1,1,1,1,,,39,1*6E

[2026-01-24_14:42:10:465]$GPRMC,000242.01,V,,,,,,,060180,,,N,V*0D

[2026-01-24_14:42:11:466]$GPGGA,000243.01,,,,,0,,99.99,,M,,M,,*62

[2026-01-24_14:42:11:466]$GPGLL,,,,,000243.01,V,N*4E

[2026-01-24_14:42:11:466]$GPGSA,A,1,,,,,,,,,,,,,99.99,99.99,99.99,1*2D

[2026-01-24_14:42:11:466]$GPGSV,1,1,1,1,,,39,1*6E

[2026-01-24_14:42:11:466]$GPRMC,000243.01,V,,,,,,,060180,,,N,V*0C

[2026-01-24_14:42:12:458]$GPGGA,000244.01,,,,,0,,99.99,,M,,M,,*65

[2026-01-24_14:42:12:458]$GPGLL,,,,,000244.01,V,N*49

[2026-01-24_14:42:12:458]$GPGSA,A,1,,,,,,,,,,,,,99.99,99.99,99.99,1*2D

[2026-01-24_14:42:12:458]$GPGSV,1,1,1,1,,,39,1*6E

[2026-01-24_14:42:12:458]$GPRMC,000244.01,V,,,,,,,060180,,,N,V*0B

[2026-01-24_14:42:13:465]$GPGGA,000245.01,,,,,0,,99.99,,M,,M,,*64

[2026-01-24_14:42:13:465]$GPGLL,,,,,000245.01,V,N*48

[2026-01-24_14:42:13:465]$GPGSA,A,1,,,,,,,,,,,,,99.99,99.99,99.99,1*2D

[2026-01-24_14:42:13:465]$GPGSV,1,1,1,1,,,38,1*6F

[2026-01-24_14:42:13:465]$GPRMC,000245.01,V,,,,,,,060180,,,N,V*0A

[2026-01-24_14:42:14:463]$GPGGA,000246.01,,,,,0,,99.99,,M,,M,,*67

[2026-01-24_14:42:14:463]$GPGLL,,,,,000246.01,V,N*4B

[2026-01-24_14:42:14:463]$GPGSA,A,1,,,,,,,,,,,,,99.99,99.99,99.99,1*2D

[2026-01-24_14:42:14:463]$GPGSV,1,1,1,1,,,38,1*6F

[2026-01-24_14:42:14:463]$GPRMC,000246.01,V,,,,,,,060180,,,N,V*09

[2026-01-24_14:42:15:450]$GPGGA,000247.01,,,,,0,,99.99,,M,,M,,*66

[2026-01-24_14:42:15:450]$GPGLL,,,,,000247.01,V,N*4A

[2026-01-24_14:42:15:450]$GPGSA,A,1,,,,,,,,,,,,,99.99,99.99,99.99,1*2D

[2026-01-24_14:42:15:450]$GPGSV,1,1,1,1,,,38,1*6F

[2026-01-24_14:42:15:450]$GPRMC,000247.01,V,,,,,,,060180,,,N,V*08

[2026-01-24_14:42:16:469]$GPGGA,000248.01,,,,,0,,99.99,,M,,M,,*69

[2026-01-24_14:42:16:469]$GPGLL,,,,,000248.01,V,N*45

[2026-01-24_14:42:16:469]$GPGSA,A,1,,,,,,,,,,,,,99.99,99.99,99.99,1*2D

[2026-01-24_14:42:16:469]$GPGSV,1,1,1,1,,,38,1*6F

[2026-01-24_14:42:16:469]$GPRMC,000248.01,V,,,,,,,060180,,,N,V*07

[2026-01-24_14:42:17:470]$GPGGA,000249.01,,,,,0,,99.99,,M,,M,,*68

[2026-01-24_14:42:17:470]$GPGLL,,,,,000249.01,V,N*44

[2026-01-24_14:42:17:470]$GPGSA,A,1,,,,,,,,,,,,,99.99,99.99,99.99,1*2D

[2026-01-24_14:42:17:470]$GPGSV,1,1,1,1,,,38,1*6F

[2026-01-24_14:42:17:470]$GPRMC,000249.01,V,,,,,,,060180,,,N,V*06

[2026-01-24_14:42:18:464]$GPGGA,000250.01,,,,,0,,99.99,,M,,M,,*60

[2026-01-24_14:42:18:464]$GPGLL,,,,,000250.01,V,N*4C

[2026-01-24_14:42:18:464]$GPGSA,A,1,,,,,,,,,,,,,99.99,99.99,99.99,1*2D

[2026-01-24_14:42:18:464]$GPGSV,1,1,1,1,,,38,1*6F

[2026-01-24_14:42:18:464]$GPRMC,000250.01,V,,,,,,,060180,,,N,V*0E

[2026-01-24_14:42:19:462]$GPGGA,000251.01,,,,,0,,99.99,,M,,M,,*61

[2026-01-24_14:42:19:462]$GPGLL,,,,,000251.01,V,N*4D

[2026-01-24_14:42:19:462]$GPGSA,A,1,,,,,,,,,,,,,99.99,99.99,99.99,1*2D

[2026-01-24_14:42:19:462]$GPGSV,1,1,1,1,,,38,1*6F

[2026-01-24_14:42:19:462]$GPRMC,000251.01,V,,,,,,,060180,,,N,V*0F

[2026-01-24_14:42:20:462]$GPGGA,000252.01,,,,,0,,99.99,,M,,M,,*62

[2026-01-24_14:42:20:462]$GPGLL,,,,,000252.01,V,N*4E

[2026-01-24_14:42:20:462]$GPGSA,A,1,,,,,,,,,,,,,99.99,99.99,99.99,1*2D

[2026-01-24_14:42:20:462]$GPGSV,1,1,1,1,,,38,1*6F

[2026-01-24_14:42:20:462]$GPRMC,000252.01,V,,,,,,,060180,,,N,V*0C

[2026-01-24_14:42:21:443]$GPGGA,000252.98,,,,,0,,99.99,,M,,M,,*62

[2026-01-24_14:42:21:443]$GPGLL,,,,,000252.98,V,N*4E

[2026-01-24_14:42:21:443]$GPGSA,A,1,,,,,,,,,,,,,99.99,99.99,99.99,1*2D

[2026-01-24_14:42:21:443]$GPGSV,1,1,1,1,,,39,1*6E

[2026-01-24_14:42:21:443]$GPRMC,000252.98,V,,,,,,,060180,,,N,V*0C

[2026-01-24_14:42:22:443]$GPGGA,000253.98,,,,,0,,99.99,,M,,M,,*63

[2026-01-24_14:42:22:443]$GPGLL,,,,,000253.98,V,N*4F

[2026-01-24_14:42:22:443]$GPGSA,A,1,,,,,,,,,,,,,99.99,99.99,99.99,1*2D

[2026-01-24_14:42:22:443]$GPGSV,3,1,12,1,,,39,3,,,21,4,,,21,5,,,22,1*6C

[2026-01-24_14:42:22:443]$GPGSV,3,2,12,7,,,22,8,,,22,9,,,22,14,,,22,1*55

[2026-01-24_14:42:22:443]$GPGSV,3,3,12,23,,,21,29,,,22,30,,,21,31,,,22,1*6C

[2026-01-24_14:42:22:483]$GPRMC,000253.98,V,,,,,,,060180,,,N,V*0D

[2026-01-24_14:42:23:438]$GPGGA,000254.98,,,,,0,,99.99,,M,,M,,*64

[2026-01-24_14:42:23:438]$GPGLL,,,,,000254.98,V,N*48

[2026-01-24_14:42:23:438]$GPGSA,A,1,,,,,,,,,,,,,99.99,99.99,99.99,1*2D

[2026-01-24_14:42:23:438]$GPGSV,3,1,12,1,,,38,3,,,24,4,,,24,5,,,24,1*6B

[2026-01-24_14:42:23:438]$GPGSV,3,2,12,7,,,24,8,,,24,9,,,25,14,,,24,1*54

[2026-01-24_14:42:23:438]$GPGSV,3,3,12,23,,,24,29,,,24,30,,,24,31,,,24,1*6C

[2026-01-24_14:42:23:474]$GPRMC,000254.98,V,,,,,,,060180,,,N,V*0A

[2026-01-24_14:42:24:442]$GPGGA,000255.98,,,,,0,,99.99,,M,,M,,*65

[2026-01-24_14:42:24:442]$GPGLL,,,,,000255.98,V,N*49

[2026-01-24_14:42:24:442]$GPGSA,A,1,,,,,,,,,,,,,99.99,99.99,99.99,1*2D

[2026-01-24_14:42:24:442]$GPGSV,3,1,12,1,,,38,3,,,24,4,,,25,5,,,24,1*6A

[2026-01-24_14:42:24:442]$GPGSV,3,2,12,7,,,25,8,,,24,9,,,25,14,,,25,1*54

[2026-01-24_14:42:24:442]$GPGSV,3,3,12,23,,,24,29,,,24,30,,,24,31,,,25,1*6D

[2026-01-24_14:42:24:467]$GPRMC,000255.98,V,,,,,,,060180,,,N,V*0B

[2026-01-24_14:42:25:432]$GPGGA,000256.98,,,,,0,,99.99,,M,,M,,*66

[2026-01-24_14:42:25:432]$GPGLL,,,,,000256.98,V,N*4A

[2026-01-24_14:42:25:432]$GPGSA,A,1,,,,,,,,,,,,,99.99,99.99,99.99,1*2D

[2026-01-24_14:42:25:432]$GPGSV,3,1,12,1,,,38,3,,,24,4,,,24,5,,,25,1*6A

[2026-01-24_14:42:25:432]$GPGSV,3,2,12,7,,,25,8,,,25,9,,,25,14,,,25,1*55

[2026-01-24_14:42:25:432]$GPGSV,3,3,12,23,,,25,29,,,24,30,,,24,31,,,24,1*6D

[2026-01-24_14:42:25:578]$GPRMC,000256.98,V,,,,,,,060180,,,N,V*08

[2026-01-24_14:42:26:442]$GPGGA,000257.98,,,,,0,,99.99,,M,,M,,*67

[2026-01-24_14:42:26:442]$GPGLL,,,,,000257.98,V,N*4B

[2026-01-24_14:42:26:442]$GPGSA,A,1,,,,,,,,,,,,,99.99,99.99,99.99,1*2D

[2026-01-24_14:42:26:442]$GPGSV,3,1,12,1,,,38,3,,,24,4,,,24,5,,,24,1*6B

[2026-01-24_14:42:26:442]$GPGSV,3,2,12,7,,,25,8,,,25,9,,,25,14,,,25,1*55

[2026-01-24_14:42:26:442]$GPGSV,3,3,12,23,,,25,29,,,25,30,,,25,31,,,25,1*6C

[2026-01-24_14:42:26:477]$GPRMC,000257.98,V,,,,,,,060180,,,N,V*09

[2026-01-24_14:42:27:438]$GPGGA,000258.98,,,,,0,,99.99,,M,,M,,*68

[2026-01-24_14:42:27:438]$GPGLL,,,,,000258.98,V,N*44

[2026-01-24_14:42:27:438]$GPGSA,A,1,,,,,,,,,,,,,99.99,99.99,99.99,1*2D

[2026-01-24_14:42:27:438]$GPGSV,3,1,12,1,,,38,3,,,25,4,,,25,5,,,24,1*6B

[2026-01-24_14:42:27:438]$GPGSV,3,2,12,7,,,25,8,,,25,9,,,25,14,,,25,1*55

[2026-01-24_14:42:27:438]$GPGSV,3,3,12,23,,,24,29,,,24,30,,,24,31,,,25,1*6D

[2026-01-24_14:42:27:474]$GPRMC,000258.98,V,,,,,,,060180,,,N,V*06

[2026-01-24_14:42:28:433]$GPGGA,000259.98,,,,,0,,99.99,,M,,M,,*69

[2026-01-24_14:42:28:433]$GPGLL,,,,,000259.98,V,N*45

[2026-01-24_14:42:28:433]$GPGSA,A,1,,,,,,,,,,,,,99.99,99.99,99.99,1*2D

[2026-01-24_14:42:28:433]$GPGSV,3,1,12,1,,,38,3,,,25,4,,,24,5,,,24,1*6A

[2026-01-24_14:42:28:433]$GPGSV,3,2,12,7,,,25,8,,,24,9,,,25,14,,,25,1*54

[2026-01-24_14:42:28:433]$GPGSV,3,3,12,23,,,25,29,,,24,30,,,24,31,,,24,1*6D

[2026-01-24_14:42:28:495]$GPRMC,000259.98,V,,,,,,,060180,,,N,V*07

[2026-01-24_14:42:29:444]$GPGGA,000300.98,,,,,0,,99.99,,M,,M,,*64

[2026-01-24_14:42:29:444]$GPGLL,,,,,000300.98,V,N*48

[2026-01-24_14:42:29:444]$GPGSA,A,1,,,,,,,,,,,,,99.99,99.99,99.99,1*2D

[2026-01-24_14:42:29:444]$GPGSV,1,1,1,1,,,38,1*6F

[2026-01-24_14:42:29:444]$GPRMC,000300.98,V,,,,,,,060180,,,N,V*0A

[2026-01-24_14:42:30:440]$GPGGA,000301.98,,,,,0,,99.99,,M,,M,,*65

[2026-01-24_14:42:30:440]$GPGLL,,,,,000301.98,V,N*49

[2026-01-24_14:42:30:440]$GPGSA,A,1,,,,,,,,,,,,,99.99,99.99,99.99,1*2D

[2026-01-24_14:42:30:440]$GPGSV,1,1,1,1,,,38,1*6F

[2026-01-24_14:42:30:440]$GPRMC,000301.98,V,,,,,,,060180,,,N,V*0B

[2026-01-24_14:42:31:445]$GPGGA,000302.98,,,,,0,,99.99,,M,,M,,*66

[2026-01-24_14:42:31:445]$GPGLL,,,,,000302.98,V,N*4A

[2026-01-24_14:42:31:445]$GPGSA,A,1,,,,,,,,,,,,,99.99,99.99,99.99,1*2D

[2026-01-24_14:42:31:445]$GPGSV,1,1,1,1,,,38,1*6F

[2026-01-24_14:42:31:445]$GPRMC,000302.98,V,,,,,,,060180,,,N,V*08

[2026-01-24_14:42:32:449]$GPGGA,000303.98,,,,,0,,99.99,,M,,M,,*67

[2026-01-24_14:42:32:449]$GPGLL,,,,,000303.98,V,N*4B

[2026-01-24_14:42:32:449]$GPGSA,A,1,,,,,,,,,,,,,99.99,99.99,99.99,1*2D

[2026-01-24_14:42:32:449]$GPGSV,1,1,1,1,,,38,1*6F

[2026-01-24_14:42:32:449]$GPRMC,000303.98,V,,,,,,,060180,,,N,V*09

[2026-01-24_14:42:33:440]$GPGGA,000304.98,,,,,0,,99.99,,M,,M,,*60

[2026-01-24_14:42:33:440]$GPGLL,,,,,000304.98,V,N*4C

[2026-01-24_14:42:33:440]$GPGSA,A,1,,,,,,,,,,,,,99.99,99.99,99.99,1*2D

[2026-01-24_14:42:33:440]$GPGSV,1,1,1,1,,,38,1*6F

[2026-01-24_14:42:33:440]$GPRMC,000304.98,V,,,,,,,060180,,,N,V*0E

[2026-01-24_14:42:34:446]$GPGGA,000305.98,,,,,0,,99.99,,M,,M,,*61

[2026-01-24_14:42:34:446]$GPGLL,,,,,000305.98,V,N*4D

[2026-01-24_14:42:34:446]$GPGSA,A,1,,,,,,,,,,,,,99.99,99.99,99.99,1*2D

[2026-01-24_14:42:34:446]$GPGSV,1,1,1,1,,,38,1*6F

[2026-01-24_14:42:34:446]$GPRMC,000305.98,V,,,,,,,060180,,,N,V*0F

[2026-01-24_14:42:35:455]$GPGGA,000306.98,,,,,0,,99.99,,M,,M,,*62

[2026-01-24_14:42:35:455]$GPGLL,,,,,000306.98,V,N*4E

[2026-01-24_14:42:35:455]$GPGSA,A,1,,,,,,,,,,,,,99.99,99.99,99.99,1*2D

[2026-01-24_14:42:35:455]$GPGSV,1,1,1,1,,,38,1*6F

[2026-01-24_14:42:35:455]$GPRMC,000306.98,V,,,,,,,060180,,,N,V*0C

[2026-01-24_14:42:36:447]$GPGGA,000307.98,,,,,0,,99.99,,M,,M,,*63

[2026-01-24_14:42:36:447]$GPGLL,,,,,000307.98,V,N*4F

[2026-01-24_14:42:36:447]$GPGSA,A,1,,,,,,,,,,,,,99.99,99.99,99.99,1*2D

[2026-01-24_14:42:36:447]$GPGSV,1,1,1,1,,,38,1*6F

[2026-01-24_14:42:36:447]$GPRMC,000307.98,V,,,,,,,060180,,,N,V*0D

[2026-01-24_14:42:37:440]$GPGGA,000308.98,,,,,0,,99.99,,M,,M,,*6C

[2026-01-24_14:42:37:440]$GPGLL,,,,,000308.98,V,N*40

[2026-01-24_14:42:37:440]$GPGSA,A,1,,,,,,,,,,,,,99.99,99.99,99.99,1*2D

[2026-01-24_14:42:37:440]$GPGSV,1,1,1,1,,,38,1*6F

[2026-01-24_14:42:37:440]$GPRMC,000308.98,V,,,,,,,060180,,,N,V*02

[2026-01-24_14:42:38:445]$GPGGA,000309.98,,,,,0,,99.99,,M,,M,,*6D

[2026-01-24_14:42:38:445]$GPGLL,,,,,000309.98,V,N*41

[2026-01-24_14:42:38:445]$GPGSA,A,1,,,,,,,,,,,,,99.99,99.99,99.99,1*2D

[2026-01-24_14:42:38:445]$GPGSV,1,1,1,1,,,38,1*6F

[2026-01-24_14:42:38:445]$GPRMC,000309.98,V,,,,,,,060180,,,N,V*03

[2026-01-24_14:42:39:442]$GPGGA,000310.98,,,,,0,,99.99,,M,,M,,*65

[2026-01-24_14:42:39:442]$GPGLL,,,,,000310.98,V,N*49

[2026-01-24_14:42:39:442]$GPGSA,A,1,,,,,,,,,,,,,99.99,99.99,99.99,1*2D

[2026-01-24_14:42:39:442]$GPGSV,1,1,1,1,,,38,1*6F

[2026-01-24_14:42:39:442]$GPRMC,000310.98,V,,,,,,,060180,,,N,V*0B

[2026-01-24_14:42:40:443]$GPGGA,000311.98,,,,,0,,99.99,,M,,M,,*64

[2026-01-24_14:42:40:443]$GPGLL,,,,,000311.98,V,N*48

[2026-01-24_14:42:40:443]$GPGSA,A,1,,,,,,,,,,,,,99.99,99.99,99.99,1*2D

[2026-01-24_14:42:40:443]$GPGSV,1,1,1,1,,,43,1*63

[2026-01-24_14:42:40:443]$GPRMC,000311.98,V,,,,,,,060180,,,N,V*0A

[2026-01-24_14:42:41:442]$GPGGA,000312.98,,,,,0,,99.99,,M,,M,,*67

[2026-01-24_14:42:41:442]$GPGLL,,,,,000312.98,V,N*4B

[2026-01-24_14:42:41:442]$GPGSA,A,1,,,,,,,,,,,,,99.99,99.99,99.99,1*2D

[2026-01-24_14:42:41:442]$GPGSV,1,1,2,1,,,43,23,,,29,1*6A

[2026-01-24_14:42:41:442]$GPRMC,000312.98,V,,,,,,,060180,,,N,V*09

[2026-01-24_14:42:42:447]$GPGGA,000313.98,,,,,0,,99.99,,M,,M,,*66

[2026-01-24_14:42:42:447]$GPGLL,,,,,000313.98,V,N*4A

[2026-01-24_14:42:42:447]$GPGSA,A,1,,,,,,,,,,,,,99.99,99.99,99.99,1*2D

[2026-01-24_14:42:42:447]$GPGSV,1,1,2,1,,,40,23,,,25,1*65

[2026-01-24_14:42:42:447]$GPRMC,000313.98,V,,,,,,,060180,,,N,V*08

[2026-01-24_14:42:43:444]$GPGGA,000314.98,,,,,0,,99.99,,M,,M,,*61

[2026-01-24_14:42:43:444]$GPGLL,,,,,000314.98,V,N*4D

[2026-01-24_14:42:43:444]$GPGSA,A,1,,,,,,,,,,,,,99.99,99.99,99.99,1*2D

[2026-01-24_14:42:43:444]$GPGSV,1,1,2,1,,,39,23,,,25,1*6B

[2026-01-24_14:42:43:444]$GPRMC,000314.98,V,,,,,,,060180,,,N,V*0F

[2026-01-24_14:42:44:459]$GPGGA,000315.98,,,,,0,,99.99,,M,,M,,*60

[2026-01-24_14:42:44:459]$GPGLL,,,,,000315.98,V,N*4C

[2026-01-24_14:42:44:459]$GPGSA,A,1,,,,,,,,,,,,,99.99,99.99,99.99,1*2D

[2026-01-24_14:42:44:459]$GPGSV,1,1,2,1,,,39,23,,,24,1*6A

[2026-01-24_14:42:44:459]$GPRMC,000315.98,V,,,,,,,060180,,,N,V*0E

[2026-01-24_14:42:45:443]$GPGGA,000316.98,,,,,0,,99.99,,M,,M,,*63

[2026-01-24_14:42:45:443]$GPGLL,,,,,000316.98,V,N*4F

[2026-01-24_14:42:45:443]$GPGSA,A,1,,,,,,,,,,,,,99.99,99.99,99.99,1*2D

[2026-01-24_14:42:45:443]$GPGSV,1,1,1,1,,,38,1*6F

[2026-01-24_14:42:45:443]$GPRMC,000316.98,V,,,,,,,060180,,,N,V*0D

[2026-01-24_14:42:46:438]$GPGGA,000317.98,,,,,0,,99.99,,M,,M,,*62

[2026-01-24_14:42:46:438]$GPGLL,,,,,000317.98,V,N*4E

[2026-01-24_14:42:46:438]$GPGSA,A,1,,,,,,,,,,,,,99.99,99.99,99.99,1*2D

[2026-01-24_14:42:46:438]$GPGSV,1,1,1,1,,,38,1*6F

[2026-01-24_14:42:46:438]$GPRMC,000317.98,V,,,,,,,060180,,,N,V*0C

[2026-01-24_14:42:47:443]$GPGGA,000318.98,,,,,0,,99.99,,M,,M,,*6D

[2026-01-24_14:42:47:443]$GPGLL,,,,,000318.98,V,N*41

[2026-01-24_14:42:47:443]$GPGSA,A,1,,,,,,,,,,,,,99.99,99.99,99.99,1*2D

[2026-01-24_14:42:47:443]$GPGSV,1,1,1,1,,,38,1*6F

[2026-01-24_14:42:47:443]$GPRMC,000318.98,V,,,,,,,060180,,,N,V*03

[2026-01-24_14:42:48:434]$GPGGA,000319.98,,,,,0,,99.99,,M,,M,,*6C

[2026-01-24_14:42:48:434]$GPGLL,,,,,000319.98,V,N*40

[2026-01-24_14:42:48:434]$GPGSA,A,1,,,,,,,,,,,,,99.99,99.99,99.99,1*2D

[2026-01-24_14:42:48:434]$GPGSV,1,1,1,1,,,38,1*6F

[2026-01-24_14:42:48:434]$GPRMC,000319.98,V,,,,,,,060180,,,N,V*02

[2026-01-24_14:42:49:446]$GPGGA,000320.98,,,,,0,,99.99,,M,,M,,*66

[2026-01-24_14:42:49:446]$GPGLL,,,,,000320.98,V,N*4A

[2026-01-24_14:42:49:446]$GPGSA,A,1,,,,,,,,,,,,,99.99,99.99,99.99,1*2D

[2026-01-24_14:42:49:446]$GPGSV,1,1,1,1,,,38,1*6F

[2026-01-24_14:42:49:446]$GPRMC,000320.98,V,,,,,,,060180,,,N,V*08

[2026-01-24_14:42:50:440]$GPGGA,000321.98,,,,,0,,99.99,,M,,M,,*67

[2026-01-24_14:42:50:440]$GPGLL,,,,,000321.98,V,N*4B

[2026-01-24_14:42:50:440]$GPGSA,A,1,,,,,,,,,,,,,99.99,99.99,99.99,1*2D

[2026-01-24_14:42:50:440]$GPGSV,1,1,1,1,,,38,1*6F

[2026-01-24_14:42:50:440]$GPRMC,000321.98,V,,,,,,,060180,,,N,V*09

[2026-01-24_14:42:51:446]$GPGGA,000322.98,,,,,0,,99.99,,M,,M,,*64

[2026-01-24_14:42:51:446]$GPGLL,,,,,000322.98,V,N*48

[2026-01-24_14:42:51:446]$GPGSA,A,1,,,,,,,,,,,,,99.99,99.99,99.99,1*2D

[2026-01-24_14:42:51:446]$GPGSV,1,1,1,1,,,38,1*6F

[2026-01-24_14:42:51:446]$GPRMC,000322.98,V,,,,,,,060180,,,N,V*0A

[2026-01-24_14:42:52:439]$GPGGA,000323.98,,,,,0,,99.99,,M,,M,,*65

[2026-01-24_14:42:52:439]$GPGLL,,,,,000323.98,V,N*49

[2026-01-24_14:42:52:439]$GPGSA,A,1,,,,,,,,,,,,,99.99,99.99,99.99,1*2D

[2026-01-24_14:42:52:439]$GPGSV,1,1,1,1,,,38,1*6F

[2026-01-24_14:42:52:439]$GPRMC,000323.98,V,,,,,,,060180,,,N,V*0B

[2026-01-24_14:42:53:439]$GPGGA,000324.98,,,,,0,,99.99,,M,,M,,*62

[2026-01-24_14:42:53:439]$GPGLL,,,,,000324.98,V,N*4E

[2026-01-24_14:42:53:439]$GPGSA,A,1,,,,,,,,,,,,,99.99,99.99,99.99,1*2D

[2026-01-24_14:42:53:439]$GPGSV,1,1,1,1,,,38,1*6F

[2026-01-24_14:42:53:439]$GPRMC,000324.98,V,,,,,,,060180,,,N,V*0C

[2026-01-24_14:42:54:447]$GPGGA,000325.98,,,,,0,,99.99,,M,,M,,*63

[2026-01-24_14:42:54:447]$GPGLL,,,,,000325.98,V,N*4F

[2026-01-24_14:42:54:447]$GPGSA,A,1,,,,,,,,,,,,,99.99,99.99,99.99,1*2D

[2026-01-24_14:42:54:447]$GPGSV,1,1,1,1,,,38,1*6F

[2026-01-24_14:42:54:447]$GPRMC,000325.98,V,,,,,,,060180,,,N,V*0D

[2026-01-24_14:42:55:443]$GPGGA,000326.98,,,,,0,,99.99,,M,,M,,*60

[2026-01-24_14:42:55:443]$GPGLL,,,,,000326.98,V,N*4C

[2026-01-24_14:42:55:443]$GPGSA,A,1,,,,,,,,,,,,,99.99,99.99,99.99,1*2D

[2026-01-24_14:42:55:443]$GPGSV,1,1,1,1,,,38,1*6F

[2026-01-24_14:42:55:443]$GPRMC,000326.98,V,,,,,,,060180,,,N,V*0E

[2026-01-24_14:42:56:440]$GPGGA,000327.98,,,,,0,,99.99,,M,,M,,*61

[2026-01-24_14:42:56:440]$GPGLL,,,,,000327.98,V,N*4D

[2026-01-24_14:42:56:440]$GPGSA,A,1,,,,,,,,,,,,,99.99,99.99,99.99,1*2D

[2026-01-24_14:42:56:440]$GPGSV,1,1,1,1,,,38,1*6F

[2026-01-24_14:42:56:440]$GPRMC,000327.98,V,,,,,,,060180,,,N,V*0F

[2026-01-24_14:42:57:438]$GPGGA,000328.98,,,,,0,,99.99,,M,,M,,*6E

[2026-01-24_14:42:57:438]$GPGLL,,,,,000328.98,V,N*42

[2026-01-24_14:42:57:438]$GPGSA,A,1,,,,,,,,,,,,,99.99,99.99,99.99,1*2D

[2026-01-24_14:42:57:438]$GPGSV,1,1,1,1,,,38,1*6F

[2026-01-24_14:42:57:438]$GPRMC,000328.98,V,,,,,,,060180,,,N,V*00

[2026-01-24_14:42:58:445]$GPGGA,000329.98,,,,,0,,99.99,,M,,M,,*6F

[2026-01-24_14:42:58:445]$GPGLL,,,,,000329.98,V,N*43

[2026-01-24_14:42:58:445]$GPGSA,A,1,,,,,,,,,,,,,99.99,99.99,99.99,1*2D

[2026-01-24_14:42:58:445]$GPGSV,1,1,1,1,,,38,1*6F

[2026-01-24_14:42:58:445]$GPRMC,000329.98,V,,,,,,,060180,,,N,V*01

[2026-01-24_14:42:59:439]$GPGGA,000330.98,,,,,0,,99.99,,M,,M,,*67

[2026-01-24_14:42:59:439]$GPGLL,,,,,000330.98,V,N*4B

[2026-01-24_14:42:59:439]$GPGSA,A,1,,,,,,,,,,,,,99.99,99.99,99.99,1*2D

[2026-01-24_14:42:59:439]$GPGSV,1,1,0,,,,,,,,,,,,,,,,,1*54

[2026-01-24_14:42:59:439]$GPRMC,000330.98,V,,,,,,,060180,,,N,V*09

[2026-01-24_14:43:00:446]$GPGGA,000331.98,,,,,0,,99.99,,M,,M,,*66

[2026-01-24_14:43:00:446]$GPGLL,,,,,000331.98,V,N*4A

[2026-01-24_14:43:00:446]$GPGSA,A,1,,,,,,,,,,,,,99.99,99.99,99.99,1*2D

[2026-01-24_14:43:00:446]$GPGSV,1,1,0,,,,,,,,,,,,,,,,,1*54

[2026-01-24_14:43:00:446]$GPRMC,000331.98,V,,,,,,,060180,,,N,V*08

[2026-01-24_14:43:01:444]$GPGGA,000332.98,,,,,0,,99.99,,M,,M,,*65

[2026-01-24_14:43:01:444]$GPGLL,,,,,000332.98,V,N*49

[2026-01-24_14:43:01:444]$GPGSA,A,1,,,,,,,,,,,,,99.99,99.99,99.99,1*2D

[2026-01-24_14:43:01:444]$GPGSV,1,1,0,,,,,,,,,,,,,,,,,1*54

[2026-01-24_14:43:01:444]$GPRMC,000332.98,V,,,,,,,060180,,,N,V*0B

[2026-01-24_14:43:02:441]$GPGGA,000333.98,,,,,0,,99.99,,M,,M,,*64

[2026-01-24_14:43:02:441]$GPGLL,,,,,000333.98,V,N*48

[2026-01-24_14:43:02:441]$GPGSA,A,1,,,,,,,,,,,,,99.99,99.99,99.99,1*2D

[2026-01-24_14:43:02:441]$GPGSV,1,1,0,,,,,,,,,,,,,,,,,1*54

[2026-01-24_14:43:02:441]$GPRMC,000333.98,V,,,,,,,060180,,,N,V*0A

[2026-01-24_14:43:03:422]$GPGGA,000334.98,,,,,0,,99.99,,M,,M,,*63

[2026-01-24_14:43:03:422]$GPGLL,,,,,000334.98,V,N*4F

[2026-01-24_14:43:03:422]$GPGSA,A,1,,,,,,,,,,,,,99.99,99.99,99.99,1*2D

[2026-01-24_14:43:03:422]$GPGSV,1,1,0,,,,,,,,,,,,,,,,,1*54

[2026-01-24_14:43:03:467]$GPRMC,000334.98,V,,,,,,,060180,,,N,V*0D

[2026-01-24_14:43:04:446]$GPGGA,000335.98,,,,,0,,99.99,,M,,M,,*62

[2026-01-24_14:43:04:446]$GPGLL,,,,,000335.98,V,N*4E

[2026-01-24_14:43:04:446]$GPGSA,A,1,,,,,,,,,,,,,99.99,99.99,99.99,1*2D

[2026-01-24_14:43:04:446]$GPGSV,1,1,0,,,,,,,,,,,,,,,,,1*54

[2026-01-24_14:43:04:446]$GPRMC,000335.98,V,,,,,,,060180,,,N,V*0C

[2026-01-24_14:43:05:444]$GPGGA,000336.98,,,,,0,,99.99,,M,,M,,*61

[2026-01-24_14:43:05:444]$GPGLL,,,,,000336.98,V,N*4D

[2026-01-24_14:43:05:444]$GPGSA,A,1,,,,,,,,,,,,,99.99,99.99,99.99,1*2D

[2026-01-24_14:43:05:444]$GPGSV,1,1,0,,,,,,,,,,,,,,,,,1*54

[2026-01-24_14:43:05:444]$GPRMC,000336.98,V,,,,,,,060180,,,N,V*0F

[2026-01-24_14:43:06:448]$GPGGA,000337.98,,,,,0,,99.99,,M,,M,,*60

[2026-01-24_14:43:06:448]$GPGLL,,,,,000337.98,V,N*4C

[2026-01-24_14:43:06:448]$GPGSA,A,1,,,,,,,,,,,,,99.99,99.99,99.99,1*2D

[2026-01-24_14:43:06:448]$GPGSV,1,1,0,,,,,,,,,,,,,,,,,1*54

[2026-01-24_14:43:06:448]$GPRMC,000337.98,V,,,,,,,060180,,,N,V*0E

[2026-01-24_14:43:07:445]$GPGGA,000338.98,,,,,0,,99.99,,M,,M,,*6F

[2026-01-24_14:43:07:445]$GPGLL,,,,,000338.98,V,N*43

[2026-01-24_14:43:07:445]$GPGSA,A,1,,,,,,,,,,,,,99.99,99.99,99.99,1*2D

[2026-01-24_14:43:07:445]$GPGSV,1,1,1,7,,,25,1*65

[2026-01-24_14:43:07:445]$GPRMC,000338.98,V,,,,,,,060180,,,N,V*01

[2026-01-24_14:43:08:445]$GPGGA,000339.98,,,,,0,,99.99,,M,,M,,*6E

[2026-01-24_14:43:08:445]$GPGLL,,,,,000339.98,V,N*42

[2026-01-24_14:43:08:445]$GPGSA,A,1,,,,,,,,,,,,,99.99,99.99,99.99,1*2D

[2026-01-24_14:43:08:445]$GPGSV,1,1,1,7,,,25,1*65

[2026-01-24_14:43:08:445]$GPRMC,000339.98,V,,,,,,,060180,,,N,V*00

[2026-01-24_14:43:09:446]$GPGGA,000340.98,,,,,0,,99.99,,M,,M,,*60

[2026-01-24_14:43:09:446]$GPGLL,,,,,000340.98,V,N*4C

[2026-01-24_14:43:09:446]$GPGSA,A,1,,,,,,,,,,,,,99.99,99.99,99.99,1*2D

[2026-01-24_14:43:09:446]$GPGSV,1,1,1,7,,,25,1*65

[2026-01-24_14:43:09:446]$GPRMC,000340.98,V,,,,,,,060180,,,N,V*0E

[2026-01-24_14:43:10:442]$GPGGA,000341.98,,,,,0,,99.99,,M,,M,,*61

[2026-01-24_14:43:10:442]$GPGLL,,,,,000341.98,V,N*4D

[2026-01-24_14:43:10:442]$GPGSA,A,1,,,,,,,,,,,,,99.99,99.99,99.99,1*2D

[2026-01-24_14:43:10:442]$GPGSV,1,1,1,7,,,25,1*65

[2026-01-24_14:43:10:442]$GPRMC,000341.98,V,,,,,,,060180,,,N,V*0F

[2026-01-24_14:43:11:447]$GPGGA,000342.98,,,,,0,,99.99,,M,,M,,*62

[2026-01-24_14:43:11:447]$GPGLL,,,,,000342.98,V,N*4E

[2026-01-24_14:43:11:447]$GPGSA,A,1,,,,,,,,,,,,,99.99,99.99,99.99,1*2D

[2026-01-24_14:43:11:447]$GPGSV,1,1,0,,,,,,,,,,,,,,,,,1*54

[2026-01-24_14:43:11:447]$GPRMC,000342.98,V,,,,,,,060180,,,N,V*0C

[2026-01-24_14:43:12:448]$GPGGA,000343.98,,,,,0,,99.99,,M,,M,,*63

[2026-01-24_14:43:12:448]$GPGLL,,,,,000343.98,V,N*4F

[2026-01-24_14:43:12:448]$GPGSA,A,1,,,,,,,,,,,,,99.99,99.99,99.99,1*2D

[2026-01-24_14:43:12:448]$GPGSV,1,1,0,,,,,,,,,,,,,,,,,1*54

[2026-01-24_14:43:12:448]$GPRMC,000343.98,V,,,,,,,060180,,,N,V*0D

[2026-01-24_14:43:13:442]$GPGGA,000344.98,,,,,0,,99.99,,M,,M,,*64

[2026-01-24_14:43:13:442]$GPGLL,,,,,000344.98,V,N*48

[2026-01-24_14:43:13:442]$GPGSA,A,1,,,,,,,,,,,,,99.99,99.99,99.99,1*2D

[2026-01-24_14:43:13:442]$GPGSV,1,1,0,,,,,,,,,,,,,,,,,1*54

[2026-01-24_14:43:13:442]$GPRMC,000344.98,V,,,,,,,060180,,,N,V*0A

[2026-01-24_14:43:14:439]$GPGGA,000345.98,,,,,0,,99.99,,M,,M,,*65

[2026-01-24_14:43:14:439]$GPGLL,,,,,000345.98,V,N*49

[2026-01-24_14:43:14:439]$GPGSA,A,1,,,,,,,,,,,,,99.99,99.99,99.99,1*2D

[2026-01-24_14:43:14:439]$GPGSV,1,1,0,,,,,,,,,,,,,,,,,1*54

[2026-01-24_14:43:14:439]$GPRMC,000345.98,V,,,,,,,060180,,,N,V*0B

[2026-01-24_14:43:15:437]$GPGGA,000346.98,,,,,0,,99.99,,M,,M,,*66

[2026-01-24_14:43:15:437]$GPGLL,,,,,000346.98,V,N*4A

[2026-01-24_14:43:15:437]$GPGSA,A,1,,,,,,,,,,,,,99.99,99.99,99.99,1*2D

[2026-01-24_14:43:15:437]$GPGSV,1,1,0,,,,,,,,,,,,,,,,,1*54

[2026-01-24_14:43:15:437]$GPRMC,000346.98,V,,,,,,,060180,,,N,V*08

[2026-01-24_14:43:16:438]$GPGGA,000347.98,,,,,0,,99.99,,M,,M,,*67

[2026-01-24_14:43:16:438]$GPGLL,,,,,000347.98,V,N*4B

[2026-01-24_14:43:16:438]$GPGSA,A,1,,,,,,,,,,,,,99.99,99.99,99.99,1*2D

[2026-01-24_14:43:16:438]$GPGSV,1,1,0,,,,,,,,,,,,,,,,,1*54

[2026-01-24_14:43:16:438]$GPRMC,000347.98,V,,,,,,,060180,,,N,V*09

[2026-01-24_14:43:17:439]$GPGGA,000348.98,,,,,0,,99.99,,M,,M,,*68

[2026-01-24_14:43:17:439]$GPGLL,,,,,000348.98,V,N*44

[2026-01-24_14:43:17:439]$GPGSA,A,1,,,,,,,,,,,,,99.99,99.99,99.99,1*2D

[2026-01-24_14:43:17:439]$GPGSV,1,1,0,,,,,,,,,,,,,,,,,1*54

[2026-01-24_14:43:17:439]$GPRMC,000348.98,V,,,,,,,060180,,,N,V*06

[2026-01-24_14:43:18:434]$GPGGA,000349.98,,,,,0,,99.99,,M,,M,,*69

[2026-01-24_14:43:18:434]$GPGLL,,,,,000349.98,V,N*45

[2026-01-24_14:43:18:434]$GPGSA,A,1,,,,,,,,,,,,,99.99,99.99,99.99,1*2D

[2026-01-24_14:43:18:434]$GPGSV,1,1,0,,,,,,,,,,,,,,,,,1*54

[2026-01-24_14:43:18:434]$GPRMC,000349.98,V,,,,,,,060180,,,N,V*07

[2026-01-24_14:43:19:436]$GPGGA,000350.98,,,,,0,,99.99,,M,,M,,*61

[2026-01-24_14:43:19:436]$GPGLL,,,,,000350.98,V,N*4D

[2026-01-24_14:43:19:436]$GPGSA,A,1,,,,,,,,,,,,,99.99,99.99,99.99,1*2D

[2026-01-24_14:43:19:436]$GPGSV,1,1,0,,,,,,,,,,,,,,,,,1*54

[2026-01-24_14:43:19:436]$GPRMC,000350.98,V,,,,,,,060180,,,N,V*0F

[2026-01-24_14:43:20:447]$GPGGA,000351.98,,,,,0,,99.99,,M,,M,,*60

[2026-01-24_14:43:20:447]$GPGLL,,,,,000351.98,V,N*4C

[2026-01-24_14:43:20:447]$GPGSA,A,1,,,,,,,,,,,,,99.99,99.99,99.99,1*2D

[2026-01-24_14:43:20:447]$GPGSV,1,1,0,,,,,,,,,,,,,,,,,1*54

[2026-01-24_14:43:20:447]$GPRMC,000351.98,V,,,,,,,060180,,,N,V*0E

[2026-01-24_14:43:21:442]$GPGGA,000352.98,,,,,0,,99.99,,M,,M,,*63

[2026-01-24_14:43:21:442]$GPGLL,,,,,000352.98,V,N*4F

[2026-01-24_14:43:21:442]$GPGSA,A,1,,,,,,,,,,,,,99.99,99.99,99.99,1*2D

[2026-01-24_14:43:21:442]$GPGSV,1,1,0,,,,,,,,,,,,,,,,,1*54

[2026-01-24_14:43:21:442]$GPRMC,000352.98,V,,,,,,,060180,,,N,V*0D

[2026-01-24_14:43:22:439]$GPGGA,000353.98,,,,,0,,99.99,,M,,M,,*62

[2026-01-24_14:43:22:439]$GPGLL,,,,,000353.98,V,N*4E

[2026-01-24_14:43:22:439]$GPGSA,A,1,,,,,,,,,,,,,99.99,99.99,99.99,1*2D

[2026-01-24_14:43:22:439]$GPGSV,1,1,0,,,,,,,,,,,,,,,,,1*54

[2026-01-24_14:43:22:439]$GPRMC,000353.98,V,,,,,,,060180,,,N,V*0C

[2026-01-24_14:43:23:450]$GPGGA,000354.98,,,,,0,,99.99,,M,,M,,*65

[2026-01-24_14:43:23:450]$GPGLL,,,,,000354.98,V,N*49

[2026-01-24_14:43:23:450]$GPGSA,A,1,,,,,,,,,,,,,99.99,99.99,99.99,1*2D

[2026-01-24_14:43:23:450]$GPGSV,1,1,0,,,,,,,,,,,,,,,,,1*54

[2026-01-24_14:43:23:450]$GPRMC,000354.98,V,,,,,,,060180,,,N,V*0B

[2026-01-24_14:43:24:443]$GPGGA,000355.98,,,,,0,,99.99,,M,,M,,*64

[2026-01-24_14:43:24:443]$GPGLL,,,,,000355.98,V,N*48

[2026-01-24_14:43:24:443]$GPGSA,A,1,,,,,,,,,,,,,99.99,99.99,99.99,1*2D

[2026-01-24_14:43:24:443]$GPGSV,1,1,0,,,,,,,,,,,,,,,,,1*54

[2026-01-24_14:43:24:443]$GPRMC,000355.98,V,,,,,,,060180,,,N,V*0A

[2026-01-24_14:43:25:439]$GPGGA,000356.98,,,,,0,,99.99,,M,,M,,*67

[2026-01-24_14:43:25:439]$GPGLL,,,,,000356.98,V,N*4B

[2026-01-24_14:43:25:439]$GPGSA,A,1,,,,,,,,,,,,,99.99,99.99,99.99,1*2D

[2026-01-24_14:43:25:439]$GPGSV,1,1,0,,,,,,,,,,,,,,,,,1*54

[2026-01-24_14:43:25:439]$GPRMC,000356.98,V,,,,,,,060180,,,N,V*09

[2026-01-24_14:43:26:445]$GPGGA,000357.98,,,,,0,,99.99,,M,,M,,*66

[2026-01-24_14:43:26:445]$GPGLL,,,,,000357.98,V,N*4A

[2026-01-24_14:43:26:445]$GPGSA,A,1,,,,,,,,,,,,,99.99,99.99,99.99,1*2D

[2026-01-24_14:43:26:445]$GPGSV,1,1,0,,,,,,,,,,,,,,,,,1*54

[2026-01-24_14:43:26:445]$GPRMC,000357.98,V,,,,,,,060180,,,N,V*08

[2026-01-24_14:43:27:442]$GPGGA,000358.98,,,,,0,,99.99,,M,,M,,*69

[2026-01-24_14:43:27:442]$GPGLL,,,,,000358.98,V,N*45

[2026-01-24_14:43:27:442]$GPGSA,A,1,,,,,,,,,,,,,99.99,99.99,99.99,1*2D

[2026-01-24_14:43:27:442]$GPGSV,1,1,0,,,,,,,,,,,,,,,,,1*54

[2026-01-24_14:43:27:442]$GPRMC,000358.98,V,,,,,,,060180,,,N,V*07

[2026-01-24_14:43:28:441]$GPGGA,000359.98,,,,,0,,99.99,,M,,M,,*68

[2026-01-24_14:43:28:441]$GPGLL,,,,,000359.98,V,N*44

[2026-01-24_14:43:28:441]$GPGSA,A,1,,,,,,,,,,,,,99.99,99.99,99.99,1*2D

[2026-01-24_14:43:28:441]$GPGSV,1,1,0,,,,,,,,,,,,,,,,,1*54

[2026-01-24_14:43:28:441]$GPRMC,000359.98,V,,,,,,,060180,,,N,V*06

[2026-01-24_14:43:29:443]$GPGGA,000400.98,,,,,0,,99.99,,M,,M,,*63

[2026-01-24_14:43:29:443]$GPGLL,,,,,000400.98,V,N*4F

[2026-01-24_14:43:29:443]$GPGSA,A,1,,,,,,,,,,,,,99.99,99.99,99.99,1*2D

[2026-01-24_14:43:29:443]$GPGSV,1,1,0,,,,,,,,,,,,,,,,,1*54

[2026-01-24_14:43:29:443]$GPRMC,000400.98,V,,,,,,,060180,,,N,V*0D

[2026-01-24_14:43:30:451]$GPGGA,000401.98,,,,,0,,99.99,,M,,M,,*62

[2026-01-24_14:43:30:451]$GPGLL,,,,,000401.98,V,N*4E

[2026-01-24_14:43:30:451]$GPGSA,A,1,,,,,,,,,,,,,99.99,99.99,99.99,1*2D

[2026-01-24_14:43:30:451]$GPGSV,1,1,0,,,,,,,,,,,,,,,,,1*54

[2026-01-24_14:43:30:451]$GPRMC,000401.98,V,,,,,,,060180,,,N,V*0C

[2026-01-24_14:43:31:437]$GPGGA,000402.98,,,,,0,,99.99,,M,,M,,*61

[2026-01-24_14:43:31:437]$GPGLL,,,,,000402.98,V,N*4D

[2026-01-24_14:43:31:437]$GPGSA,A,1,,,,,,,,,,,,,99.99,99.99,99.99,1*2D

[2026-01-24_14:43:31:437]$GPGSV,1,1,0,,,,,,,,,,,,,,,,,1*54

[2026-01-24_14:43:31:437]$GPRMC,000402.98,V,,,,,,,060180,,,N,V*0F

[2026-01-24_14:43:32:452]$GPGGA,000403.98,,,,,0,,99.99,,M,,M,,*60

[2026-01-24_14:43:32:452]$GPGLL,,,,,000403.98,V,N*4C

[2026-01-24_14:43:32:452]$GPGSA,A,1,,,,,,,,,,,,,99.99,99.99,99.99,1*2D

[2026-01-24_14:43:32:452]$GPGSV,1,1,0,,,,,,,,,,,,,,,,,1*54

[2026-01-24_14:43:32:452]$GPRMC,000403.98,V,,,,,,,060180,,,N,V*0E

[2026-01-24_14:43:33:443]$GPGGA,000404.98,,,,,0,,99.99,,M,,M,,*67

[2026-01-24_14:43:33:443]$GPGLL,,,,,000404.98,V,N*4B

[2026-01-24_14:43:33:443]$GPGSA,A,1,,,,,,,,,,,,,99.99,99.99,99.99,1*2D

[2026-01-24_14:43:33:443]$GPGSV,1,1,0,,,,,,,,,,,,,,,,,1*54

[2026-01-24_14:43:33:443]$GPRMC,000404.98,V,,,,,,,060180,,,N,V*09

[2026-01-24_14:43:34:451]$GPGGA,000405.98,,,,,0,,99.99,,M,,M,,*66

[2026-01-24_14:43:34:451]$GPGLL,,,,,000405.98,V,N*4A

[2026-01-24_14:43:34:451]$GPGSA,A,1,,,,,,,,,,,,,99.99,99.99,99.99,1*2D

[2026-01-24_14:43:34:451]$GPGSV,1,1,0,,,,,,,,,,,,,,,,,1*54

[2026-01-24_14:43:34:451]$GPRMC,000405.98,V,,,,,,,060180,,,N,V*08

[2026-01-24_14:43:35:440]$GPGGA,000406.98,,,,,0,,99.99,,M,,M,,*65

[2026-01-24_14:43:35:440]$GPGLL,,,,,000406.98,V,N*49

[2026-01-24_14:43:35:440]$GPGSA,A,1,,,,,,,,,,,,,99.99,99.99,99.99,1*2D

[2026-01-24_14:43:35:440]$GPGSV,1,1,0,,,,,,,,,,,,,,,,,1*54

[2026-01-24_14:43:35:440]$GPRMC,000406.98,V,,,,,,,060180,,,N,V*0B

[2026-01-24_14:43:36:437]$GPGGA,000407.98,,,,,0,,99.99,,M,,M,,*64

[2026-01-24_14:43:36:437]$GPGLL,,,,,000407.98,V,N*48

[2026-01-24_14:43:36:437]$GPGSA,A,1,,,,,,,,,,,,,99.99,99.99,99.99,1*2D

[2026-01-24_14:43:36:437]$GPGSV,1,1,0,,,,,,,,,,,,,,,,,1*54

[2026-01-24_14:43:36:437]$GPRMC,000407.98,V,,,,,,,060180,,,N,V*0A

[2026-01-24_14:43:37:441]$GPGGA,000408.98,,,,,0,,99.99,,M,,M,,*6B

[2026-01-24_14:43:37:441]$GPGLL,,,,,000408.98,V,N*47

[2026-01-24_14:43:37:441]$GPGSA,A,1,,,,,,,,,,,,,99.99,99.99,99.99,1*2D

[2026-01-24_14:43:37:441]$GPGSV,1,1,0,,,,,,,,,,,,,,,,,1*54

[2026-01-24_14:43:37:441]$GPRMC,000408.98,V,,,,,,,060180,,,N,V*05

[2026-01-24_14:43:38:443]$GPGGA,000409.98,,,,,0,,99.99,,M,,M,,*6A

[2026-01-24_14:43:38:443]$GPGLL,,,,,000409.98,V,N*46

[2026-01-24_14:43:38:443]$GPGSA,A,1,,,,,,,,,,,,,99.99,99.99,99.99,1*2D

[2026-01-24_14:43:38:443]$GPGSV,1,1,0,,,,,,,,,,,,,,,,,1*54

[2026-01-24_14:43:38:443]$GPRMC,000409.98,V,,,,,,,060180,,,N,V*04

[2026-01-24_14:43:39:440]$GPGGA,000410.98,,,,,0,,99.99,,M,,M,,*62

[2026-01-24_14:43:39:440]$GPGLL,,,,,000410.98,V,N*4E

[2026-01-24_14:43:39:440]$GPGSA,A,1,,,,,,,,,,,,,99.99,99.99,99.99,1*2D

[2026-01-24_14:43:39:440]$GPGSV,1,1,0,,,,,,,,,,,,,,,,,1*54

[2026-01-24_14:43:39:440]$GPRMC,000410.98,V,,,,,,,060180,,,N,V*0C

[2026-01-24_14:43:40:442]$GPGGA,000411.98,,,,,0,,99.99,,M,,M,,*63

[2026-01-24_14:43:40:442]$GPGLL,,,,,000411.98,V,N*4F

[2026-01-24_14:43:40:442]$GPGSA,A,1,,,,,,,,,,,,,99.99,99.99,99.99,1*2D

[2026-01-24_14:43:40:442]$GPGSV,1,1,0,,,,,,,,,,,,,,,,,1*54

[2026-01-24_14:43:40:442]$GPRMC,000411.98,V,,,,,,,060180,,,N,V*0D

[2026-01-24_14:43:41:440]$GPGGA,000412.98,,,,,0,,99.99,,M,,M,,*60

[2026-01-24_14:43:41:440]$GPGLL,,,,,000412.98,V,N*4C

[2026-01-24_14:43:41:440]$GPGSA,A,1,,,,,,,,,,,,,99.99,99.99,99.99,1*2D

[2026-01-24_14:43:41:440]$GPGSV,1,1,0,,,,,,,,,,,,,,,,,1*54

[2026-01-24_14:43:41:440]$GPRMC,000412.98,V,,,,,,,060180,,,N,V*0E

[2026-01-24_14:43:42:442]$GPGGA,000413.98,,,,,0,,99.99,,M,,M,,*61

[2026-01-24_14:43:42:442]$GPGLL,,,,,000413.98,V,N*4D

[2026-01-24_14:43:42:442]$GPGSA,A,1,,,,,,,,,,,,,99.99,99.99,99.99,1*2D

[2026-01-24_14:43:42:442]$GPGSV,1,1,0,,,,,,,,,,,,,,,,,1*54

[2026-01-24_14:43:42:442]$GPRMC,000413.98,V,,,,,,,060180,,,N,V*0F

[2026-01-24_14:43:43:454]$GPGGA,000414.98,,,,,0,,99.99,,M,,M,,*66

[2026-01-24_14:43:43:454]$GPGLL,,,,,000414.98,V,N*4A

[2026-01-24_14:43:43:454]$GPGSA,A,1,,,,,,,,,,,,,99.99,99.99,99.99,1*2D

[2026-01-24_14:43:43:454]$GPGSV,1,1,0,,,,,,,,,,,,,,,,,1*54

[2026-01-24_14:43:43:454]$GPRMC,000414.98,V,,,,,,,060180,,,N,V*08

[2026-01-24_14:43:44:449]$GPGGA,000415.98,,,,,0,,99.99,,M,,M,,*67

[2026-01-24_14:43:44:449]$GPGLL,,,,,000415.98,V,N*4B

[2026-01-24_14:43:44:449]$GPGSA,A,1,,,,,,,,,,,,,99.99,99.99,99.99,1*2D

[2026-01-24_14:43:44:449]$GPGSV,1,1,0,,,,,,,,,,,,,,,,,1*54

[2026-01-24_14:43:44:449]$GPRMC,000415.98,V,,,,,,,060180,,,N,V*09

[2026-01-24_14:43:45:443]$GPGGA,000416.98,,,,,0,,99.99,,M,,M,,*64

[2026-01-24_14:43:45:443]$GPGLL,,,,,000416.98,V,N*48

[2026-01-24_14:43:45:443]$GPGSA,A,1,,,,,,,,,,,,,99.99,99.99,99.99,1*2D

[2026-01-24_14:43:45:443]$GPGSV,1,1,0,,,,,,,,,,,,,,,,,1*54

[2026-01-24_14:43:45:443]$GPRMC,000416.98,V,,,,,,,060180,,,N,V*0A

[2026-01-24_14:43:46:439]$GPGGA,000417.98,,,,,0,,99.99,,M,,M,,*65

[2026-01-24_14:43:46:439]$GPGLL,,,,,000417.98,V,N*49

[2026-01-24_14:43:46:439]$GPGSA,A,1,,,,,,,,,,,,,99.99,99.99,99.99,1*2D

[2026-01-24_14:43:46:439]$GPGSV,1,1,0,,,,,,,,,,,,,,,,,1*54

[2026-01-24_14:43:46:439]$GPRMC,000417.98,V,,,,,,,060180,,,N,V*0B

[2026-01-24_14:43:47:442]$GPGGA,000418.98,,,,,0,,99.99,,M,,M,,*6A

[2026-01-24_14:43:47:442]$GPGLL,,,,,000418.98,V,N*46

[2026-01-24_14:43:47:442]$GPGSA,A,1,,,,,,,,,,,,,99.99,99.99,99.99,1*2D

[2026-01-24_14:43:47:442]$GPGSV,1,1,0,,,,,,,,,,,,,,,,,1*54

[2026-01-24_14:43:47:442]$GPRMC,000418.98,V,,,,,,,060180,,,N,V*04

[2026-01-24_14:43:48:441]$GPGGA,000419.98,,,,,0,,99.99,,M,,M,,*6B

[2026-01-24_14:43:48:441]$GPGLL,,,,,000419.98,V,N*47

[2026-01-24_14:43:48:441]$GPGSA,A,1,,,,,,,,,,,,,99.99,99.99,99.99,1*2D

[2026-01-24_14:43:48:441]$GPGSV,1,1,0,,,,,,,,,,,,,,,,,1*54

[2026-01-24_14:43:48:441]$GPRMC,000419.98,V,,,,,,,060180,,,N,V*05

[2026-01-24_14:43:49:438]$GPGGA,000420.98,,,,,0,,99.99,,M,,M,,*61

[2026-01-24_14:43:49:438]$GPGLL,,,,,000420.98,V,N*4D

[2026-01-24_14:43:49:438]$GPGSA,A,1,,,,,,,,,,,,,99.99,99.99,99.99,1*2D

[2026-01-24_14:43:49:438]$GPGSV,1,1,0,,,,,,,,,,,,,,,,,1*54

[2026-01-24_14:43:49:438]$GPRMC,000420.98,V,,,,,,,060180,,,N,V*0F

[2026-01-24_14:43:50:445]$GPGGA,000421.98,,,,,0,,99.99,,M,,M,,*60

[2026-01-24_14:43:50:445]$GPGLL,,,,,000421.98,V,N*4C

[2026-01-24_14:43:50:445]$GPGSA,A,1,,,,,,,,,,,,,99.99,99.99,99.99,1*2D

[2026-01-24_14:43:50:445]$GPGSV,1,1,0,,,,,,,,,,,,,,,,,1*54

[2026-01-24_14:43:50:445]$GPRMC,000421.98,V,,,,,,,060180,,,N,V*0E

[2026-01-24_14:43:51:443]$GPGGA,000422.98,,,,,0,,99.99,,M,,M,,*63

[2026-01-24_14:43:51:443]$GPGLL,,,,,000422.98,V,N*4F

[2026-01-24_14:43:51:443]$GPGSA,A,1,,,,,,,,,,,,,99.99,99.99,99.99,1*2D

[2026-01-24_14:43:51:443]$GPGSV,1,1,0,,,,,,,,,,,,,,,,,1*54

[2026-01-24_14:43:51:443]$GPRMC,000422.98,V,,,,,,,060180,,,N,V*0D

[2026-01-24_14:43:52:438]$GPGGA,000423.98,,,,,0,,99.99,,M,,M,,*62

[2026-01-24_14:43:52:438]$GPGLL,,,,,000423.98,V,N*4E

[2026-01-24_14:43:52:438]$GPGSA,A,1,,,,,,,,,,,,,99.99,99.99,99.99,1*2D

[2026-01-24_14:43:52:438]$GPGSV,1,1,0,,,,,,,,,,,,,,,,,1*54

[2026-01-24_14:43:52:438]$GPRMC,000423.98,V,,,,,,,060180,,,N,V*0C

[2026-01-24_14:43:53:437]$GPGGA,000424.98,,,,,0,,99.99,,M,,M,,*65

[2026-01-24_14:43:53:437]$GPGLL,,,,,000424.98,V,N*49

[2026-01-24_14:43:53:437]$GPGSA,A,1,,,,,,,,,,,,,99.99,99.99,99.99,1*2D

[2026-01-24_14:43:53:437]$GPGSV,1,1,0,,,,,,,,,,,,,,,,,1*54

[2026-01-24_14:43:53:437]$GPRMC,000424.98,V,,,,,,,060180,,,N,V*0B

[2026-01-24_14:43:54:442]$GPGGA,000425.98,,,,,0,,99.99,,M,,M,,*64

[2026-01-24_14:43:54:442]$GPGLL,,,,,000425.98,V,N*48

[2026-01-24_14:43:54:442]$GPGSA,A,1,,,,,,,,,,,,,99.99,99.99,99.99,1*2D

[2026-01-24_14:43:54:442]$GPGSV,1,1,0,,,,,,,,,,,,,,,,,1*54

[2026-01-24_14:43:54:442]$GPRMC,000425.98,V,,,,,,,060180,,,N,V*0A

[2026-01-24_14:43:55:441]$GPGGA,000426.98,,,,,0,,99.99,,M,,M,,*67

[2026-01-24_14:43:55:441]$GPGLL,,,,,000426.98,V,N*4B

[2026-01-24_14:43:55:441]$GPGSA,A,1,,,,,,,,,,,,,99.99,99.99,99.99,1*2D

[2026-01-24_14:43:55:441]$GPGSV,1,1,0,,,,,,,,,,,,,,,,,1*54

[2026-01-24_14:43:55:441]$GPRMC,000426.98,V,,,,,,,060180,,,N,V*09

[2026-01-24_14:43:56:443]$GPGGA,000427.98,,,,,0,,99.99,,M,,M,,*66

[2026-01-24_14:43:56:443]$GPGLL,,,,,000427.98,V,N*4A

[2026-01-24_14:43:56:443]$GPGSA,A,1,,,,,,,,,,,,,99.99,99.99,99.99,1*2D

[2026-01-24_14:43:56:443]$GPGSV,1,1,0,,,,,,,,,,,,,,,,,1*54

[2026-01-24_14:43:56:443]$GPRMC,000427.98,V,,,,,,,060180,,,N,V*08

[2026-01-24_14:43:57:443]$GPGGA,000428.98,,,,,0,,99.99,,M,,M,,*69

[2026-01-24_14:43:57:443]$GPGLL,,,,,000428.98,V,N*45

[2026-01-24_14:43:57:443]$GPGSA,A,1,,,,,,,,,,,,,99.99,99.99,99.99,1*2D

[2026-01-24_14:43:57:443]$GPGSV,1,1,0,,,,,,,,,,,,,,,,,1*54

[2026-01-24_14:43:57:443]$GPRMC,000428.98,V,,,,,,,060180,,,N,V*07

[2026-01-24_14:43:58:447]$GPGGA,000429.98,,,,,0,,99.99,,M,,M,,*68

[2026-01-24_14:43:58:447]$GPGLL,,,,,000429.98,V,N*44

[2026-01-24_14:43:58:447]$GPGSA,A,1,,,,,,,,,,,,,99.99,99.99,99.99,1*2D

[2026-01-24_14:43:58:447]$GPGSV,1,1,1,1,,,43,1*63

[2026-01-24_14:43:58:447]$GPRMC,000429.98,V,,,,,,,060180,,,N,V*06

[2026-01-24_14:43:59:448]$GPGGA,000430.98,,,,,0,,99.99,,M,,M,,*60

[2026-01-24_14:43:59:448]$GPGLL,,,,,000430.98,V,N*4C

[2026-01-24_14:43:59:448]$GPGSA,A,1,,,,,,,,,,,,,99.99,99.99,99.99,1*2D

[2026-01-24_14:43:59:448]$GPGSV,1,1,2,1,,,46,3,,,28,1*5C

[2026-01-24_14:43:59:448]$GPRMC,000430.98,V,,,,,,,060180,,,N,V*0E

[2026-01-24_14:44:00:441]$GPGGA,000431.98,,,,,0,,99.99,,M,,M,,*61

[2026-01-24_14:44:00:441]$GPGLL,,,,,000431.98,V,N*4D

[2026-01-24_14:44:00:441]$GPGSA,A,1,,,,,,,,,,,,,99.99,99.99,99.99,1*2D

[2026-01-24_14:44:00:441]$GPGSV,1,1,2,1,,,46,3,,,25,1*51

[2026-01-24_14:44:00:441]$GPRMC,000431.98,V,,,,,,,060180,,,N,V*0F

[2026-01-24_14:44:01:441]$GPGGA,000432.98,,,,,0,,99.99,,M,,M,,*62

[2026-01-24_14:44:01:441]$GPGLL,,,,,000432.98,V,N*4E

[2026-01-24_14:44:01:441]$GPGSA,A,1,,,,,,,,,,,,,99.99,99.99,99.99,1*2D

[2026-01-24_14:44:01:441]$GPGSV,1,1,2,1,,,42,3,,,25,1*55

[2026-01-24_14:44:01:441]$GPRMC,000432.98,V,,,,,,,060180,,,N,V*0C

[2026-01-24_14:44:02:445]$GPGGA,000433.98,,,,,0,,99.99,,M,,M,,*63

[2026-01-24_14:44:02:445]$GPGLL,,,,,000433.98,V,N*4F

[2026-01-24_14:44:02:445]$GPGSA,A,1,,,,,,,,,,,,,99.99,99.99,99.99,1*2D

[2026-01-24_14:44:02:445]$GPGSV,1,1,2,1,,,40,3,,,25,1*57

[2026-01-24_14:44:02:445]$GPRMC,000433.98,V,,,,,,,060180,,,N,V*0D

[2026-01-24_14:44:03:443]$GPGGA,000434.98,,,,,0,,99.99,,M,,M,,*64

[2026-01-24_14:44:03:443]$GPGLL,,,,,000434.98,V,N*48

[2026-01-24_14:44:03:443]$GPGSA,A,1,,,,,,,,,,,,,99.99,99.99,99.99,1*2D

[2026-01-24_14:44:03:443]$GPGSV,1,1,1,1,,,39,1*6E

[2026-01-24_14:44:03:443]$GPRMC,000434.98,V,,,,,,,060180,,,N,V*0A

[2026-01-24_14:44:04:456]$GPGGA,000435.98,,,,,0,,99.99,,M,,M,,*65

[2026-01-24_14:44:04:456]$GPGLL,,,,,000435.98,V,N*49

[2026-01-24_14:44:04:456]$GPGSA,A,1,,,,,,,,,,,,,99.99,99.99,99.99,1*2D

[2026-01-24_14:44:04:456]$GPGSV,1,1,1,1,,,39,1*6E

[2026-01-24_14:44:04:456]$GPRMC,000435.98,V,,,,,,,060180,,,N,V*0B

[2026-01-24_14:44:05:440]$GPGGA,000436.98,,,,,0,,99.99,,M,,M,,*66

[2026-01-24_14:44:05:440]$GPGLL,,,,,000436.98,V,N*4A

[2026-01-24_14:44:05:440]$GPGSA,A,1,,,,,,,,,,,,,99.99,99.99,99.99,1*2D

[2026-01-24_14:44:05:440]$GPGSV,1,1,1,1,,,38,1*6F

[2026-01-24_14:44:05:440]$GPRMC,000436.98,V,,,,,,,060180,,,N,V*08

[2026-01-24_14:44:06:439]$GPGGA,000437.98,,,,,0,,99.99,,M,,M,,*67

[2026-01-24_14:44:06:439]$GPGLL,,,,,000437.98,V,N*4B

[2026-01-24_14:44:06:439]$GPGSA,A,1,,,,,,,,,,,,,99.99,99.99,99.99,1*2D

[2026-01-24_14:44:06:439]$GPGSV,1,1,1,1,,,38,1*6F

[2026-01-24_14:44:06:439]$GPRMC,000437.98,V,,,,,,,060180,,,N,V*09

[2026-01-24_14:44:07:438]$GPGGA,000438.98,,,,,0,,99.99,,M,,M,,*68

[2026-01-24_14:44:07:438]$GPGLL,,,,,000438.98,V,N*44

[2026-01-24_14:44:07:438]$GPGSA,A,1,,,,,,,,,,,,,99.99,99.99,99.99,1*2D

[2026-01-24_14:44:07:438]$GPGSV,1,1,1,1,,,38,1*6F

[2026-01-24_14:44:07:438]$GPRMC,000438.98,V,,,,,,,060180,,,N,V*06

[2026-01-24_14:44:08:438]$GPGGA,000439.98,,,,,0,,99.99,,M,,M,,*69

[2026-01-24_14:44:08:438]$GPGLL,,,,,000439.98,V,N*45

[2026-01-24_14:44:08:438]$GPGSA,A,1,,,,,,,,,,,,,99.99,99.99,99.99,1*2D

[2026-01-24_14:44:08:438]$GPGSV,1,1,1,1,,,38,1*6F

[2026-01-24_14:44:08:438]$GPRMC,000439.98,V,,,,,,,060180,,,N,V*07

[2026-01-24_14:44:09:446]$GPGGA,000440.98,,,,,0,,99.99,,M,,M,,*67

[2026-01-24_14:44:09:446]$GPGLL,,,,,000440.98,V,N*4B

[2026-01-24_14:44:09:446]$GPGSA,A,1,,,,,,,,,,,,,99.99,99.99,99.99,1*2D

[2026-01-24_14:44:09:446]$GPGSV,1,1,1,1,,,38,1*6F

[2026-01-24_14:44:09:446]$GPRMC,000440.98,V,,,,,,,060180,,,N,V*09

[2026-01-24_14:44:10:443]$GPGGA,000441.98,,,,,0,,99.99,,M,,M,,*66

[2026-01-24_14:44:10:443]$GPGLL,,,,,000441.98,V,N*4A

[2026-01-24_14:44:10:443]$GPGSA,A,1,,,,,,,,,,,,,99.99,99.99,99.99,1*2D

[2026-01-24_14:44:10:443]$GPGSV,1,1,1,1,,,38,1*6F

[2026-01-24_14:44:10:443]$GPRMC,000441.98,V,,,,,,,060180,,,N,V*08

[2026-01-24_14:44:11:444]$GPGGA,000442.98,,,,,0,,99.99,,M,,M,,*65

[2026-01-24_14:44:11:444]$GPGLL,,,,,000442.98,V,N*49

[2026-01-24_14:44:11:444]$GPGSA,A,1,,,,,,,,,,,,,99.99,99.99,99.99,1*2D

[2026-01-24_14:44:11:444]$GPGSV,1,1,1,1,,,38,1*6F

[2026-01-24_14:44:11:444]$GPRMC,000442.98,V,,,,,,,060180,,,N,V*0B

[2026-01-24_14:44:12:448]$GPGGA,000443.98,,,,,0,,99.99,,M,,M,,*64

[2026-01-24_14:44:12:448]$GPGLL,,,,,000443.98,V,N*48

[2026-01-24_14:44:12:448]$GPGSA,A,1,,,,,,,,,,,,,99.99,99.99,99.99,1*2D

[2026-01-24_14:44:12:448]$GPGSV,1,1,1,1,,,38,1*6F

[2026-01-24_14:44:12:448]$GPRMC,000443.98,V,,,,,,,060180,,,N,V*0A

[2026-01-24_14:44:13:450]$GPGGA,000444.98,,,,,0,,99.99,,M,,M,,*63

[2026-01-24_14:44:13:450]$GPGLL,,,,,000444.98,V,N*4F

[2026-01-24_14:44:13:450]$GPGSA,A,1,,,,,,,,,,,,,99.99,99.99,99.99,1*2D

[2026-01-24_14:44:13:450]$GPGSV,1,1,1,1,,,38,1*6F

[2026-01-24_14:44:13:450]$GPRMC,000444.98,V,,,,,,,060180,,,N,V*0D

[2026-01-24_14:44:14:447]$GPGGA,000445.98,,,,,0,,99.99,,M,,M,,*62

[2026-01-24_14:44:14:447]$GPGLL,,,,,000445.98,V,N*4E

[2026-01-24_14:44:14:447]$GPGSA,A,1,,,,,,,,,,,,,99.99,99.99,99.99,1*2D

[2026-01-24_14:44:14:447]$GPGSV,1,1,1,1,,,38,1*6F

[2026-01-24_14:44:14:447]$GPRMC,000445.98,V,,,,,,,060180,,,N,V*0C

[2026-01-24_14:44:15:443]$GPGGA,000446.98,,,,,0,,99.99,,M,,M,,*61

[2026-01-24_14:44:15:443]$GPGLL,,,,,000446.98,V,N*4D

[2026-01-24_14:44:15:443]$GPGSA,A,1,,,,,,,,,,,,,99.99,99.99,99.99,1*2D

[2026-01-24_14:44:15:443]$GPGSV,1,1,1,1,,,38,1*6F

[2026-01-24_14:44:15:443]$GPRMC,000446.98,V,,,,,,,060180,,,N,V*0F

[2026-01-24_14:44:16:440]$GPGGA,000447.98,,,,,0,,99.99,,M,,M,,*60

[2026-01-24_14:44:16:440]$GPGLL,,,,,000447.98,V,N*4C

[2026-01-24_14:44:16:440]$GPGSA,A,1,,,,,,,,,,,,,99.99,99.99,99.99,1*2D

[2026-01-24_14:44:16:440]$GPGSV,1,1,1,1,,,38,1*6F

[2026-01-24_14:44:16:440]$GPRMC,000447.98,V,,,,,,,060180,,,N,V*0E

[2026-01-24_14:44:17:434]$GPGGA,000448.98,,,,,0,,99.99,,M,,M,,*6F

[2026-01-24_14:44:17:434]$GPGLL,,,,,000448.98,V,N*43

[2026-01-24_14:44:17:434]$GPGSA,A,1,,,,,,,,,,,,,99.99,99.99,99.99,1*2D

[2026-01-24_14:44:17:434]$GPGSV,1,1,1,1,,,38,1*6F

[2026-01-24_14:44:17:434]$GPRMC,000448.98,V,,,,,,,060180,,,N,V*01

[2026-01-24_14:44:18:439]$GPGGA,000449.98,,,,,0,,99.99,,M,,M,,*6E

[2026-01-24_14:44:18:439]$GPGLL,,,,,000449.98,V,N*42

[2026-01-24_14:44:18:439]$GPGSA,A,1,,,,,,,,,,,,,99.99,99.99,99.99,1*2D

[2026-01-24_14:44:18:439]$GPGSV,1,1,0,,,,,,,,,,,,,,,,,1*54

[2026-01-24_14:44:18:439]$GPRMC,000449.98,V,,,,,,,060180,,,N,V*00

[2026-01-24_14:44:19:441]$GPGGA,000450.98,,,,,0,,99.99,,M,,M,,*66

[2026-01-24_14:44:19:441]$GPGLL,,,,,000450.98,V,N*4A

[2026-01-24_14:44:19:441]$GPGSA,A,1,,,,,,,,,,,,,99.99,99.99,99.99,1*2D

[2026-01-24_14:44:19:441]$GPGSV,1,1,0,,,,,,,,,,,,,,,,,1*54

[2026-01-24_14:44:19:441]$GPRMC,000450.98,V,,,,,,,060180,,,N,V*08

[2026-01-24_14:44:20:438]$GPGGA,000451.98,,,,,0,,99.99,,M,,M,,*67

[2026-01-24_14:44:20:438]$GPGLL,,,,,000451.98,V,N*4B

[2026-01-24_14:44:20:438]$GPGSA,A,1,,,,,,,,,,,,,99.99,99.99,99.99,1*2D

[2026-01-24_14:44:20:438]$GPGSV,1,1,0,,,,,,,,,,,,,,,,,1*54

[2026-01-24_14:44:20:438]$GPRMC,000451.98,V,,,,,,,060180,,,N,V*09

[2026-01-24_14:44:21:440]$GPGGA,000452.98,,,,,0,,99.99,,M,,M,,*64

[2026-01-24_14:44:21:440]$GPGLL,,,,,000452.98,V,N*48

[2026-01-24_14:44:21:440]$GPGSA,A,1,,,,,,,,,,,,,99.99,99.99,99.99,1*2D

[2026-01-24_14:44:21:440]$GPGSV,1,1,0,,,,,,,,,,,,,,,,,1*54

[2026-01-24_14:44:21:440]$GPRMC,000452.98,V,,,,,,,060180,,,N,V*0A

[2026-01-24_14:44:22:446]$GPGGA,000453.98,,,,,0,,99.99,,M,,M,,*65

[2026-01-24_14:44:22:446]$GPGLL,,,,,000453.98,V,N*49

[2026-01-24_14:44:22:446]$GPGSA,A,1,,,,,,,,,,,,,99.99,99.99,99.99,1*2D

[2026-01-24_14:44:22:446]$GPGSV,1,1,0,,,,,,,,,,,,,,,,,1*54

[2026-01-24_14:44:22:446]$GPRMC,000453.98,V,,,,,,,060180,,,N,V*0B

[2026-01-24_14:44:23:443]$GPGGA,000454.98,,,,,0,,99.99,,M,,M,,*62

[2026-01-24_14:44:23:443]$GPGLL,,,,,000454.98,V,N*4E

[2026-01-24_14:44:23:443]$GPGSA,A,1,,,,,,,,,,,,,99.99,99.99,99.99,1*2D

[2026-01-24_14:44:23:443]$GPGSV,1,1,0,,,,,,,,,,,,,,,,,1*54

[2026-01-24_14:44:23:443]$GPRMC,000454.98,V,,,,,,,060180,,,N,V*0C

[2026-01-24_14:44:24:448]$GPGGA,000455.98,,,,,0,,99.99,,M,,M,,*63

[2026-01-24_14:44:24:448]$GPGLL,,,,,000455.98,V,N*4F

[2026-01-24_14:44:24:448]$GPGSA,A,1,,,,,,,,,,,,,99.99,99.99,99.99,1*2D

[2026-01-24_14:44:24:448]$GPGSV,1,1,0,,,,,,,,,,,,,,,,,1*54

[2026-01-24_14:44:24:448]$GPRMC,000455.98,V,,,,,,,060180,,,N,V*0D

[2026-01-24_14:44:25:438]$GPGGA,000456.98,,,,,0,,99.99,,M,,M,,*60

[2026-01-24_14:44:25:438]$GPGLL,,,,,000456.98,V,N*4C

[2026-01-24_14:44:25:438]$GPGSA,A,1,,,,,,,,,,,,,99.99,99.99,99.99,1*2D

[2026-01-24_14:44:25:438]$GPGSV,1,1,0,,,,,,,,,,,,,,,,,1*54

[2026-01-24_14:44:25:438]$GPRMC,000456.98,V,,,,,,,060180,,,N,V*0E

[2026-01-24_14:44:26:439]$GPGGA,000457.98,,,,,0,,99.99,,M,,M,,*61

[2026-01-24_14:44:26:439]$GPGLL,,,,,000457.98,V,N*4D

[2026-01-24_14:44:26:439]$GPGSA,A,1,,,,,,,,,,,,,99.99,99.99,99.99,1*2D

[2026-01-24_14:44:26:439]$GPGSV,1,1,0,,,,,,,,,,,,,,,,,1*54

[2026-01-24_14:44:26:439]$GPRMC,000457.98,V,,,,,,,060180,,,N,V*0F

[2026-01-24_14:44:27:446]$GPGGA,000458.98,,,,,0,,99.99,,M,,M,,*6E

[2026-01-24_14:44:27:446]$GPGLL,,,,,000458.98,V,N*42

[2026-01-24_14:44:27:446]$GPGSA,A,1,,,,,,,,,,,,,99.99,99.99,99.99,1*2D

[2026-01-24_14:44:27:446]$GPGSV,1,1,1,11,,,25,1*52

[2026-01-24_14:44:27:446]$GPRMC,000458.98,V,,,,,,,060180,,,N,V*00

[2026-01-24_14:44:28:444]$GPGGA,000459.98,,,,,0,,99.99,,M,,M,,*6F

[2026-01-24_14:44:28:444]$GPGLL,,,,,000459.98,V,N*43

[2026-01-24_14:44:28:444]$GPGSA,A,1,,,,,,,,,,,,,99.99,99.99,99.99,1*2D

[2026-01-24_14:44:28:444]$GPGSV,1,1,1,11,,,25,1*52

[2026-01-24_14:44:28:444]$GPRMC,000459.98,V,,,,,,,060180,,,N,V*01

[2026-01-24_14:44:29:437]$GPGGA,000500.98,,,,,0,,99.99,,M,,M,,*62

[2026-01-24_14:44:29:437]$GPGLL,,,,,000500.98,V,N*4E

[2026-01-24_14:44:29:437]$GPGSA,A,1,,,,,,,,,,,,,99.99,99.99,99.99,1*2D

[2026-01-24_14:44:29:437]$GPGSV,1,1,1,11,,,24,1*53

[2026-01-24_14:44:29:437]$GPRMC,000500.98,V,,,,,,,060180,,,N,V*0C

[2026-01-24_14:44:30:446]$GPGGA,000501.98,,,,,0,,99.99,,M,,M,,*63

[2026-01-24_14:44:30:446]$GPGLL,,,,,000501.98,V,N*4F

[2026-01-24_14:44:30:446]$GPGSA,A,1,,,,,,,,,,,,,99.99,99.99,99.99,1*2D

[2026-01-24_14:44:30:446]$GPGSV,1,1,1,11,,,25,1*52

[2026-01-24_14:44:30:446]$GPRMC,000501.98,V,,,,,,,060180,,,N,V*0D

[2026-01-24_14:44:31:441]$GPGGA,000502.98,,,,,0,,99.99,,M,,M,,*60

[2026-01-24_14:44:31:441]$GPGLL,,,,,000502.98,V,N*4C

[2026-01-24_14:44:31:441]$GPGSA,A,1,,,,,,,,,,,,,99.99,99.99,99.99,1*2D

[2026-01-24_14:44:31:441]$GPGSV,1,1,1,11,,,24,1*53

[2026-01-24_14:44:31:441]$GPRMC,000502.98,V,,,,,,,060180,,,N,V*0E

[2026-01-24_14:44:32:445]$GPGGA,000503.98,,,,,0,,99.99,,M,,M,,*61

[2026-01-24_14:44:32:445]$GPGLL,,,,,000503.98,V,N*4D

[2026-01-24_14:44:32:445]$GPGSA,A,1,,,,,,,,,,,,,99.99,99.99,99.99,1*2D

[2026-01-24_14:44:32:445]$GPGSV,1,1,1,11,,,25,1*52

[2026-01-24_14:44:32:445]$GPRMC,000503.98,V,,,,,,,060180,,,N,V*0F

[2026-01-24_14:44:33:443]$GPGGA,000504.98,,,,,0,,99.99,,M,,M,,*66

[2026-01-24_14:44:33:443]$GPGLL,,,,,000504.98,V,N*4A

[2026-01-24_14:44:33:443]$GPGSA,A,1,,,,,,,,,,,,,99.99,99.99,99.99,1*2D

[2026-01-24_14:44:33:443]$GPGSV,1,1,2,1,,,37,11,,,25,1*64

[2026-01-24_14:44:33:443]$GPRMC,000504.98,V,,,,,,,060180,,,N,V*08

[2026-01-24_14:44:34:446]$GPGGA,000505.98,,,,,0,,99.99,,M,,M,,*67

[2026-01-24_14:44:34:446]$GPGLL,,,,,000505.98,V,N*4B

[2026-01-24_14:44:34:446]$GPGSA,A,1,,,,,,,,,,,,,99.99,99.99,99.99,1*2D

[2026-01-24_14:44:34:446]$GPGSV,1,1,2,1,,,26,11,,,25,1*64

[2026-01-24_14:44:34:446]$GPRMC,000505.98,V,,,,,,,060180,,,N,V*09

[2026-01-24_14:44:35:442]$GPGGA,000506.98,,,,,0,,99.99,,M,,M,,*64

[2026-01-24_14:44:35:442]$GPGLL,,,,,000506.98,V,N*48

[2026-01-24_14:44:35:442]$GPGSA,A,1,,,,,,,,,,,,,99.99,99.99,99.99,1*2D

[2026-01-24_14:44:35:442]$GPGSV,1,1,2,1,,,24,4,,,29,1*5E

[2026-01-24_14:44:35:442]$GPRMC,000506.98,V,,,,,,,060180,,,N,V*0A

[2026-01-24_14:44:36:449]$GPGGA,000507.98,,,,,0,,99.99,,M,,M,,*65

[2026-01-24_14:44:36:449]$GPGLL,,,,,000507.98,V,N*49

[2026-01-24_14:44:36:449]$GPGSA,A,1,,,,,,,,,,,,,99.99,99.99,99.99,1*2D

[2026-01-24_14:44:36:449]$GPGSV,1,1,2,1,,,24,4,,,25,1*52

[2026-01-24_14:44:36:449]$GPRMC,000507.98,V,,,,,,,060180,,,N,V*0B

[2026-01-24_14:44:37:448]$GPGGA,000508.98,,,,,0,,99.99,,M,,M,,*6A

[2026-01-24_14:44:37:448]$GPGLL,,,,,000508.98,V,N*46

[2026-01-24_14:44:37:448]$GPGSA,A,1,,,,,,,,,,,,,99.99,99.99,99.99,1*2D

[2026-01-24_14:44:37:448]$GPGSV,1,1,2,1,,,24,4,,,25,1*52

[2026-01-24_14:44:37:448]$GPRMC,000508.98,V,,,,,,,060180,,,N,V*04

[2026-01-24_14:44:38:443]$GPGGA,000509.98,,,,,0,,99.99,,M,,M,,*6B

[2026-01-24_14:44:38:443]$GPGLL,,,,,000509.98,V,N*47

[2026-01-24_14:44:38:443]$GPGSA,A,1,,,,,,,,,,,,,99.99,99.99,99.99,1*2D

[2026-01-24_14:44:38:443]$GPGSV,1,1,2,1,,,24,4,,,25,1*52

[2026-01-24_14:44:38:443]$GPRMC,000509.98,V,,,,,,,060180,,,N,V*05

